Wetterdaten: Samstag, 02.01.2021
Datum Zeit Temp. Aussen Temp. o. S. Temp +5cm Feuchte Auss Luftdruck Regen Sonnenschein Regendauer Solar Windben Empfang
02.01.2021 00:00 2,8 C 2,2 C 2,2 C 95 % 1012,5 hPa 0,0 l/m 0 min 0 min 0 W/m 0,0 km/h (0 Bft) 97,87 %
02.01.2021 00:02 2,8 C 2,2 C 2,2 C 95 % 1012,5 hPa 0,0 l/m 0 min 0 min 0 W/m 12,9 km/h (3 Bft) 95,45 %
02.01.2021 00:04 2,8 C 2,2 C 2,2 C 95 % 1012,5 hPa 0,0 l/m 0 min 0 min 0 W/m 0,0 km/h (0 Bft) 97,87 %
02.01.2021 00:08 2,7 C 2,2 C 2,2 C 95 % 1012,5 hPa 0,0 l/m 0 min 0 min 0 W/m 0,0 km/h (0 Bft) 95,79 %
02.01.2021 00:10 2,7 C 2,2 C 2,2 C 95 % 1012,5 hPa 0,0 l/m 0 min 0 min 0 W/m 3,2 km/h (1 Bft) 97,87 %
02.01.2021 00:12 2,7 C 2,2 C 2,2 C 95 % 1012,5 hPa 0,0 l/m 0 min 0 min 0 W/m 0,0 km/h (0 Bft) 95,74 %
02.01.2021 00:14 2,7 C 2,2 C 2,2 C 95 % 1012,5 hPa 0,0 l/m 0 min 0 min 0 W/m 0,0 km/h (0 Bft) 93,48 %
02.01.2021 00:16 2,7 C 2,2 C 2,2 C 95 % 1012,6 hPa 0,0 l/m 0 min 0 min 0 W/m 0,0 km/h (0 Bft) 93,62 %
02.01.2021 00:18 2,7 C 2,2 C 2,2 C 95 % 1012,5 hPa 0,0 l/m 0 min 0 min 0 W/m 0,0 km/h (0 Bft) 97,87 %
02.01.2021 00:20 2,6 C 2,2 C 2,2 C 95 % 1012,6 hPa 0,0 l/m 0 min 0 min 0 W/m 0,0 km/h (0 Bft) 97,87 %
02.01.2021 00:22 2,6 C 2,2 C 2,2 C 95 % 1012,6 hPa 0,0 l/m 0 min 0 min 0 W/m 0,0 km/h (0 Bft) 97,87 %
02.01.2021 00:24 2,6 C 2,2 C 2,2 C 95 % 1012,6 hPa 0,0 l/m 0 min 0 min 0 W/m 0,0 km/h (0 Bft) 97,87 %
02.01.2021 00:26 2,6 C 2,2 C 2,2 C 95 % 1012,6 hPa 0,0 l/m 0 min 0 min 0 W/m 16,1 km/h (3 Bft) 97,83 %
02.01.2021 00:28 2,6 C 2,2 C 2,2 C 95 % 1012,6 hPa 0,0 l/m 0 min 0 min 0 W/m 0,0 km/h (0 Bft) 95,83 %
02.01.2021 00:30 2,6 C 2,2 C 2,2 C 95 % 1012,6 hPa 0,0 l/m 0 min 0 min 0 W/m 0,0 km/h (0 Bft) 98,36 %
02.01.2021 00:32 2,6 C 2,2 C 2,2 C 95 % 1012,6 hPa 0,0 l/m 0 min 0 min 0 W/m 0,0 km/h (0 Bft) 95,74 %
02.01.2021 00:34 2,5 C 2,2 C 2,2 C 95 % 1012,6 hPa 0,0 l/m 0 min 0 min 0 W/m 12,9 km/h (3 Bft) 97,83 %
02.01.2021 00:36 2,5 C 2,2 C 2,2 C 95 % 1012,7 hPa 0,0 l/m 0 min 0 min 0 W/m 3,2 km/h (1 Bft) 93,62 %
02.01.2021 00:38 2,5 C 2,2 C 1,6 C 95 % 1012,6 hPa 0,0 l/m 0 min 0 min 0 W/m 12,9 km/h (3 Bft) 97,87 %
02.01.2021 00:40 2,5 C 2,2 C 1,6 C 95 % 1012,6 hPa 0,0 l/m 0 min 0 min 0 W/m 0,0 km/h (0 Bft) 95,74 %
02.01.2021 00:42 2,5 C 2,2 C 1,6 C 95 % 1012,7 hPa 0,0 l/m 0 min 0 min 0 W/m 19,3 km/h (3 Bft) 97,87 %
02.01.2021 00:44 2,5 C 2,2 C 1,6 C 95 % 1012,7 hPa 0,0 l/m 0 min 0 min 0 W/m 3,2 km/h (1 Bft) 97,83 %
02.01.2021 00:46 2,5 C 2,2 C 1,6 C 95 % 1012,6 hPa 0,0 l/m 0 min 0 min 0 W/m 0,0 km/h (0 Bft) 97,87 %
02.01.2021 00:48 2,5 C 2,2 C 1,6 C 95 % 1012,7 hPa 0,0 l/m 0 min 0 min 0 W/m 0,0 km/h (0 Bft) 97,87 %
02.01.2021 00:50 2,5 C 2,2 C 1,6 C 95 % 1012,7 hPa 0,0 l/m 0 min 0 min 0 W/m 0,0 km/h (0 Bft) 97,87 %
02.01.2021 00:52 2,5 C 2,2 C 1,6 C 95 % 1012,8 hPa 0,0 l/m 0 min 0 min 0 W/m 0,0 km/h (0 Bft) 95,74 %
02.01.2021 00:54 2,4 C 2,2 C 1,6 C 95 % 1012,7 hPa 0,0 l/m 0 min 0 min 0 W/m 12,9 km/h (3 Bft) 95,74 %
02.01.2021 00:56 2,4 C 2,2 C 1,6 C 95 % 1012,7 hPa 0,0 l/m 0 min 0 min 0 W/m 3,2 km/h (1 Bft) 97,87 %
02.01.2021 00:58 2,4 C 2,2 C 1,6 C 95 % 1012,8 hPa 0,0 l/m 0 min 0 min 0 W/m 3,2 km/h (1 Bft) 97,83 %
02.01.2021 01:00 2,4 C 1,7 C 1,6 C 95 % 1012,8 hPa 0,0 l/m 0 min 0 min 0 W/m 3,2 km/h (1 Bft) 100,00 %
02.01.2021 01:02 2,4 C 1,7 C 1,6 C 95 % 1012,8 hPa 0,0 l/m 0 min 0 min 0 W/m 0,0 km/h (0 Bft) 97,87 %
02.01.2021 01:04 2,4 C 1,7 C 1,6 C 95 % 1012,8 hPa 0,0 l/m 0 min 0 min 0 W/m 6,4 km/h (2 Bft) 100,00 %
02.01.2021 01:06 2,4 C 1,7 C 1,6 C 95 % 1012,7 hPa 0,0 l/m 0 min 0 min 0 W/m 3,2 km/h (1 Bft) 100,00 %
02.01.2021 01:08 2,4 C 1,7 C 1,6 C 95 % 1012,7 hPa 0,0 l/m 0 min 0 min 0 W/m 0,0 km/h (0 Bft) 97,83 %
02.01.2021 01:10 2,4 C 1,7 C 1,6 C 95 % 1012,8 hPa 0,0 l/m 0 min 0 min 0 W/m 0,0 km/h (0 Bft) 100,00 %
02.01.2021 01:12 2,4 C 1,7 C 1,6 C 95 % 1012,8 hPa 0,0 l/m 0 min 0 min 0 W/m 0,0 km/h (0 Bft) 100,00 %
02.01.2021 01:14 2,3 C 1,7 C 1,6 C 95 % 1012,8 hPa 0,0 l/m 0 min 0 min 0 W/m 19,3 km/h (3 Bft) 100,00 %
02.01.2021 01:16 2,3 C 1,7 C 1,6 C 95 % 1012,7 hPa 0,0 l/m 0 min 0 min 0 W/m 22,5 km/h (4 Bft) 97,87 %
02.01.2021 01:18 2,3 C 1,7 C 1,6 C 95 % 1012,8 hPa 0,0 l/m 0 min 0 min 0 W/m 22,5 km/h (4 Bft) 100,00 %
02.01.2021 01:20 2,3 C 1,7 C 1,6 C 95 % 1012,8 hPa 0,0 l/m 0 min 0 min 0 W/m 29,0 km/h (5 Bft) 100,00 %
02.01.2021 01:22 2,3 C 1,7 C 1,6 C 95 % 1012,8 hPa 0,0 l/m 0 min 0 min 0 W/m 3,2 km/h (1 Bft) 97,87 %
02.01.2021 01:24 2,2 C 1,7 C 1,6 C 95 % 1012,9 hPa 0,0 l/m 0 min 0 min 0 W/m 0,0 km/h (0 Bft) 97,87 %
02.01.2021 01:26 2,2 C 1,7 C 1,6 C 94 % 1012,8 hPa 0,0 l/m 0 min 0 min 0 W/m 0,0 km/h (0 Bft) 97,87 %
02.01.2021 01:28 2,2 C 1,7 C 1,6 C 94 % 1012,8 hPa 0,0 l/m 0 min 0 min 0 W/m 0,0 km/h (0 Bft) 97,87 %
02.01.2021 01:30 2,2 C 1,7 C 1,6 C 94 % 1012,9 hPa 0,0 l/m 0 min 0 min 0 W/m 3,2 km/h (1 Bft) 100,00 %
02.01.2021 01:32 2,1 C 1,7 C 1,6 C 94 % 1012,8 hPa 0,0 l/m 0 min 0 min 0 W/m 0,0 km/h (0 Bft) 100,00 %
02.01.2021 01:34 2,1 C 1,7 C 1,6 C 95 % 1012,8 hPa 0,0 l/m 0 min 0 min 0 W/m 0,0 km/h (0 Bft) 100,00 %
02.01.2021 01:36 2,1 C 1,7 C 1,6 C 95 % 1012,8 hPa 0,0 l/m 0 min 0 min 0 W/m 0,0 km/h (0 Bft) 93,62 %
02.01.2021 01:38 2,1 C 1,7 C 1,6 C 95 % 1012,8 hPa 0,0 l/m 0 min 0 min 0 W/m 0,0 km/h (0 Bft) 100,00 %
02.01.2021 01:40 2,1 C 1,7 C 1,6 C 95 % 1012,9 hPa 0,0 l/m 0 min 0 min 0 W/m 16,1 km/h (3 Bft) 100,00 %
02.01.2021 01:42 2,1 C 1,7 C 1,6 C 95 % 1012,8 hPa 0,0 l/m 0 min 0 min 0 W/m 0,0 km/h (0 Bft) 97,83 %
02.01.2021 01:44 2,1 C 1,7 C 1,6 C 95 % 1012,8 hPa 0,0 l/m 0 min 0 min 0 W/m 3,2 km/h (1 Bft) 100,00 %
02.01.2021 01:46 2,1 C 1,7 C 1,6 C 95 % 1012,9 hPa 0,0 l/m 0 min 0 min 0 W/m 0,0 km/h (0 Bft) 100,00 %
02.01.2021 01:48 2,1 C 1,7 C 1,6 C 95 % 1012,8 hPa 0,0 l/m 0 min 0 min 0 W/m 12,9 km/h (3 Bft) 100,00 %
02.01.2021 01:50 2,1 C 1,7 C 1,6 C 95 % 1012,8 hPa 0,0 l/m 0 min 0 min 0 W/m 0,0 km/h (0 Bft) 100,00 %
02.01.2021 01:52 2,1 C 1,7 C 1,6 C 95 % 1012,9 hPa 0,0 l/m 0 min 0 min 0 W/m 12,9 km/h (3 Bft) 100,00 %
02.01.2021 01:54 2,1 C 1,7 C 1,6 C 95 % 1012,9 hPa 0,0 l/m 0 min 0 min 0 W/m 12,9 km/h (3 Bft) 100,00 %
02.01.2021 01:56 2,1 C 1,7 C 1,6 C 95 % 1012,9 hPa 0,0 l/m 0 min 0 min 0 W/m 0,0 km/h (0 Bft) 95,65 %
02.01.2021 01:58 2,1 C 1,7 C 1,6 C 95 % 1012,9 hPa 0,0 l/m 0 min 0 min 0 W/m 16,1 km/h (3 Bft) 95,74 %
02.01.2021 02:00 2,1 C 1,7 C 1,6 C 95 % 1012,9 hPa 0,0 l/m 0 min 0 min 0 W/m 19,3 km/h (3 Bft) 100,00 %
02.01.2021 02:02 2,1 C 1,7 C 1,6 C 95 % 1012,9 hPa 0,0 l/m 0 min 0 min 0 W/m 3,2 km/h (1 Bft) 100,00 %
02.01.2021 02:04 2,1 C 1,7 C 1,6 C 95 % 1012,9 hPa 0,0 l/m 0 min 0 min 0 W/m 3,2 km/h (1 Bft) 100,00 %
02.01.2021 02:06 2,1 C 1,7 C 1,6 C 95 % 1012,9 hPa 0,0 l/m 0 min 0 min 0 W/m 19,3 km/h (3 Bft) 100,00 %
02.01.2021 02:08 2,1 C 1,7 C 1,6 C 95 % 1012,9 hPa 0,0 l/m 0 min 0 min 0 W/m 16,1 km/h (3 Bft) 97,87 %
02.01.2021 02:10 2,1 C 1,7 C 1,6 C 95 % 1013,0 hPa 0,0 l/m 0 min 0 min 0 W/m 0,0 km/h (0 Bft) 97,87 %
02.01.2021 02:12 2,2 C 1,7 C 1,6 C 95 % 1013,0 hPa 0,0 l/m 0 min 0 min 0 W/m 0,0 km/h (0 Bft) 100,00 %
02.01.2021 02:14 2,2 C 1,7 C 1,6 C 95 % 1013,0 hPa 0,0 l/m 0 min 0 min 0 W/m 16,1 km/h (3 Bft) 97,87 %
02.01.2021 02:16 2,2 C 1,7 C 1,6 C 95 % 1013,0 hPa 0,0 l/m 0 min 0 min 0 W/m 0,0 km/h (0 Bft) 97,87 %
02.01.2021 02:18 2,2 C 1,7 C 1,6 C 95 % 1013,0 hPa 0,0 l/m 0 min 0 min 0 W/m 3,2 km/h (1 Bft) 93,48 %
02.01.2021 02:20 2,2 C 1,7 C 1,6 C 95 % 1013,0 hPa 0,0 l/m 0 min 0 min 0 W/m 0,0 km/h (0 Bft) 95,74 %
02.01.2021 02:22 2,2 C 1,7 C 1,6 C 95 % 1013,1 hPa 0,0 l/m 0 min 0 min 0 W/m 3,2 km/h (1 Bft) 91,49 %
02.01.2021 02:24 2,2 C 1,7 C 1,6 C 95 % 1013,1 hPa 0,0 l/m 0 min 0 min 0 W/m 22,5 km/h (4 Bft) 91,49 %
02.01.2021 02:26 2,2 C 1,7 C 1,6 C 95 % 1013,1 hPa 0,0 l/m 0 min 2 min 0 W/m 0,0 km/h (0 Bft) 97,87 %
02.01.2021 02:28 2,2 C 1,7 C 1,6 C 95 % 1013,1 hPa 0,0 l/m 0 min 2 min 0 W/m 19,3 km/h (3 Bft) 97,83 %
02.01.2021 02:30 2,2 C 1,1 C 1,1 C 95 % 1013,1 hPa 0,0 l/m 0 min 2 min 0 W/m 3,2 km/h (1 Bft) 95,74 %
02.01.2021 02:32 2,3 C 1,1 C 1,1 C 95 % 1013,2 hPa 0,0 l/m 0 min 2 min 0 W/m 0,0 km/h (0 Bft) 97,87 %
02.01.2021 02:34 2,3 C 1,1 C 1,1 C 95 % 1013,2 hPa 0,0 l/m 0 min 0 min 0 W/m 16,1 km/h (3 Bft) 97,87 %
02.01.2021 02:36 2,3 C 1,1 C 1,1 C 95 % 1013,2 hPa 0,0 l/m 0 min 0 min 0 W/m 0,0 km/h (0 Bft) 97,87 %
02.01.2021 02:38 2,3 C 1,1 C 1,1 C 95 % 1013,2 hPa 0,0 l/m 0 min 2 min 0 W/m 0,0 km/h (0 Bft) 97,87 %
02.01.2021 02:40 2,3 C 1,1 C 1,1 C 95 % 1013,2 hPa 0,0 l/m 0 min 0 min 0 W/m 3,2 km/h (1 Bft) 97,83 %
02.01.2021 02:42 2,3 C 1,1 C 1,1 C 95 % 1013,2 hPa 0,0 l/m 0 min 2 min 0 W/m 22,5 km/h (4 Bft) 97,87 %
02.01.2021 02:44 2,3 C 1,1 C 1,1 C 95 % 1013,2 hPa 0,0 l/m 0 min 0 min 0 W/m 3,2 km/h (1 Bft) 97,87 %
02.01.2021 02:46 2,3 C 1,1 C 1,1 C 95 % 1013,2 hPa 0,0 l/m 0 min 0 min 0 W/m 0,0 km/h (0 Bft) 95,74 %
02.01.2021 02:48 2,3 C 1,1 C 1,1 C 95 % 1013,2 hPa 0,0 l/m 0 min 2 min 0 W/m 0,0 km/h (0 Bft) 95,74 %
02.01.2021 02:50 2,3 C 1,1 C 1,1 C 95 % 1013,2 hPa 0,0 l/m 0 min 0 min 0 W/m 0,0 km/h (0 Bft) 97,87 %
02.01.2021 02:52 2,3 C 1,1 C 1,1 C 95 % 1013,2 hPa 0,0 l/m 0 min 0 min 0 W/m 3,2 km/h (1 Bft) 97,83 %
02.01.2021 02:54 2,3 C 1,1 C 1,1 C 95 % 1013,2 hPa 0,0 l/m 0 min 0 min 0 W/m 0,0 km/h (0 Bft) 42,11 %
02.01.2021 02:56 2,3 C 1,1 C 1,1 C 95 % 1013,2 hPa 0,0 l/m 0 min 0 min 0 W/m 0,0 km/h (0 Bft) 97,78 %
02.01.2021 02:58 2,2 C 1,1 C 1,1 C 95 % 1013,2 hPa 0,0 l/m 0 min 0 min 0 W/m 22,5 km/h (4 Bft) 100,00 %
02.01.2021 03:00 2,2 C 1,1 C 1,1 C 95 % 1013,2 hPa 0,0 l/m 0 min 0 min 0 W/m 3,2 km/h (1 Bft) 100,00 %
02.01.2021 03:02 2,2 C 1,1 C 1,1 C 95 % 1013,2 hPa 0,0 l/m 0 min 0 min 0 W/m 0,0 km/h (0 Bft) 100,00 %
02.01.2021 03:04 2,2 C 1,1 C 1,1 C 95 % 1013,2 hPa 0,0 l/m 0 min 0 min 0 W/m 0,0 km/h (0 Bft) 97,83 %
02.01.2021 03:06 2,2 C 1,1 C 1,1 C 95 % 1013,2 hPa 0,0 l/m 0 min 0 min 0 W/m 0,0 km/h (0 Bft) 97,87 %
02.01.2021 03:08 2,2 C 1,1 C 1,1 C 95 % 1013,2 hPa 0,0 l/m 0 min 0 min 0 W/m 0,0 km/h (0 Bft) 97,87 %
02.01.2021 03:10 2,2 C 1,1 C 1,1 C 95 % 1013,2 hPa 0,0 l/m 0 min 0 min 0 W/m 0,0 km/h (0 Bft) 95,74 %
02.01.2021 03:12 2,1 C 1,1 C 1,1 C 95 % 1013,2 hPa 0,0 l/m 0 min 0 min 0 W/m 6,4 km/h (2 Bft) 95,74 %
02.01.2021 03:14 2,1 C 1,1 C 1,1 C 95 % 1013,2 hPa 0,0 l/m 0 min 0 min 0 W/m 0,0 km/h (0 Bft) 97,83 %
02.01.2021 03:16 2,1 C 1,1 C 1,1 C 95 % 1013,2 hPa 0,0 l/m 0 min 0 min 0 W/m 0,0 km/h (0 Bft) 97,87 %
02.01.2021 03:18 2,1 C 1,7 C 1,1 C 95 % 1013,2 hPa 0,0 l/m 0 min 0 min 0 W/m 19,3 km/h (3 Bft) 97,87 %
02.01.2021 03:20 2,1 C 1,7 C 1,1 C 95 % 1013,2 hPa 0,0 l/m 0 min 0 min 0 W/m 3,2 km/h (1 Bft) 97,87 %
02.01.2021 03:22 2,1 C 1,1 C 1,1 C 95 % 1013,2 hPa 0,0 l/m 0 min 0 min 0 W/m 0,0 km/h (0 Bft) 97,87 %
02.01.2021 03:24 2,1 C 1,1 C 1,1 C 95 % 1013,2 hPa 0,0 l/m 0 min 0 min 0 W/m 3,2 km/h (1 Bft) 97,92 %
02.01.2021 03:26 2,1 C 1,1 C 1,1 C 95 % 1013,2 hPa 0,0 l/m 0 min 0 min 0 W/m 6,4 km/h (2 Bft) 97,87 %
02.01.2021 03:28 2,1 C 1,1 C 1,1 C 95 % 1013,3 hPa 0,0 l/m 0 min 0 min 0 W/m 22,5 km/h (4 Bft) 95,74 %
02.01.2021 03:30 2,1 C 1,1 C 1,1 C 95 % 1013,3 hPa 0,0 l/m 0 min 0 min 0 W/m 0,0 km/h (0 Bft) 95,74 %
02.01.2021 03:32 2,0 C 1,1 C 1,1 C 95 % 1013,3 hPa 0,0 l/m 0 min 0 min 0 W/m 12,9 km/h (3 Bft) 95,74 %
02.01.2021 03:34 2,0 C 1,1 C 1,1 C 95 % 1013,2 hPa 0,0 l/m 0 min 0 min 0 W/m 0,0 km/h (0 Bft) 95,74 %
02.01.2021 03:36 2,0 C 1,1 C 1,1 C 95 % 1013,2 hPa 0,0 l/m 0 min 0 min 0 W/m 0,0 km/h (0 Bft) 97,87 %
02.01.2021 03:38 2,0 C 1,1 C 1,1 C 95 % 1013,2 hPa 0,0 l/m 0 min 0 min 0 W/m 12,9 km/h (3 Bft) 97,87 %
02.01.2021 03:40 2,0 C 1,1 C 1,1 C 95 % 1013,2 hPa 0,0 l/m 0 min 0 min 0 W/m 0,0 km/h (0 Bft) 97,87 %
02.01.2021 03:42 2,0 C 1,1 C 1,1 C 95 % 1013,2 hPa 0,0 l/m 0 min 0 min 0 W/m 25,7 km/h (4 Bft) 97,87 %
02.01.2021 03:44 2,0 C 1,1 C 1,1 C 95 % 1013,2 hPa 0,2 l/m 0 min 0 min 0 W/m 6,4 km/h (2 Bft) 95,65 %
02.01.2021 03:46 2,0 C 1,1 C 1,1 C 95 % 1013,2 hPa 0,0 l/m 0 min 0 min 0 W/m 0,0 km/h (0 Bft) 87,23 %
02.01.2021 03:48 1,9 C 1,1 C 1,1 C 95 % 1013,1 hPa 0,0 l/m 0 min 0 min 0 W/m 3,2 km/h (1 Bft) 65,91 %
02.01.2021 03:50 1,9 C 1,1 C 1,1 C 95 % 1013,2 hPa 0,0 l/m 0 min 0 min 0 W/m 0,0 km/h (0 Bft) 97,87 %
02.01.2021 03:52 1,9 C 1,1 C 1,1 C 95 % 1013,1 hPa 0,0 l/m 0 min 0 min 0 W/m 0,0 km/h (0 Bft) 95,74 %
02.01.2021 03:54 1,9 C 1,1 C 1,1 C 95 % 1013,2 hPa 0,0 l/m 0 min 0 min 0 W/m 3,2 km/h (1 Bft) 97,87 %
02.01.2021 03:56 1,9 C 1,1 C 1,1 C 95 % 1013,1 hPa 0,0 l/m 0 min 0 min 0 W/m 22,5 km/h (4 Bft) 100,00 %
02.01.2021 03:58 1,9 C 1,1 C 1,1 C 95 % 1013,1 hPa 0,0 l/m 0 min 0 min 0 W/m 0,0 km/h (0 Bft) 100,00 %
02.01.2021 04:00 1,9 C 1,1 C 1,1 C 96 % 1013,1 hPa 0,0 l/m 0 min 0 min 0 W/m 0,0 km/h (0 Bft) 100,00 %
02.01.2021 04:02 1,9 C 1,1 C 1,1 C 96 % 1013,1 hPa 0,0 l/m 0 min 0 min 0 W/m 0,0 km/h (0 Bft) 100,00 %
02.01.2021 04:04 1,9 C 1,1 C 1,1 C 96 % 1013,2 hPa 0,0 l/m 0 min 0 min 0 W/m 0,0 km/h (0 Bft) 95,74 %
02.01.2021 04:06 1,9 C 1,1 C 1,1 C 96 % 1013,2 hPa 0,0 l/m 0 min 0 min 0 W/m 0,0 km/h (0 Bft) 100,00 %
02.01.2021 04:08 1,9 C 1,1 C 1,1 C 96 % 1013,1 hPa 0,0 l/m 0 min 0 min 0 W/m 16,1 km/h (3 Bft) 100,00 %
02.01.2021 04:10 1,9 C 1,1 C 1,1 C 96 % 1013,2 hPa 0,0 l/m 0 min 0 min 0 W/m 3,2 km/h (1 Bft) 100,00 %
02.01.2021 04:12 1,9 C 1,1 C 1,1 C 96 % 1013,2 hPa 0,0 l/m 0 min 0 min 0 W/m 3,2 km/h (1 Bft) 100,00 %
02.01.2021 04:14 1,9 C 1,1 C 1,1 C 96 % 1013,3 hPa 0,0 l/m 0 min 0 min 0 W/m 0,0 km/h (0 Bft) 100,00 %
02.01.2021 04:16 1,9 C 1,1 C 1,1 C 96 % 1013,3 hPa 0,0 l/m 0 min 0 min 0 W/m 16,1 km/h (3 Bft) 100,00 %
02.01.2021 04:18 1,9 C 1,1 C 1,1 C 96 % 1013,3 hPa 0,0 l/m 0 min 0 min 0 W/m 19,3 km/h (3 Bft) 100,00 %
02.01.2021 04:20 1,8 C 1,1 C 1,1 C 96 % 1013,3 hPa 0,0 l/m 0 min 0 min 0 W/m 0,0 km/h (0 Bft) 100,00 %
02.01.2021 04:22 1,8 C 1,1 C 1,1 C 96 % 1013,3 hPa 0,0 l/m 0 min 0 min 0 W/m 3,2 km/h (1 Bft) 100,00 %
02.01.2021 04:24 1,8 C 1,1 C 1,1 C 96 % 1013,3 hPa 0,0 l/m 0 min 0 min 0 W/m 6,4 km/h (2 Bft) 100,00 %
02.01.2021 04:26 1,8 C 1,1 C 1,1 C 95 % 1013,3 hPa 0,0 l/m 0 min 0 min 0 W/m 19,3 km/h (3 Bft) 100,00 %
02.01.2021 04:28 1,8 C 1,1 C 1,1 C 95 % 1013,3 hPa 0,0 l/m 0 min 0 min 0 W/m 3,2 km/h (1 Bft) 100,00 %
02.01.2021 04:30 1,8 C 1,1 C 1,1 C 95 % 1013,3 hPa 0,0 l/m 0 min 0 min 0 W/m 0,0 km/h (0 Bft) 100,00 %
02.01.2021 04:32 1,8 C 1,1 C 1,1 C 95 % 1013,3 hPa 0,0 l/m 0 min 0 min 0 W/m 3,2 km/h (1 Bft) 100,00 %
02.01.2021 04:34 1,8 C 1,1 C 1,1 C 95 % 1013,3 hPa 0,0 l/m 0 min 0 min 0 W/m 0,0 km/h (0 Bft) 95,65 %
02.01.2021 04:36 1,8 C 1,1 C 1,1 C 95 % 1013,4 hPa 0,0 l/m 0 min 0 min 0 W/m 0,0 km/h (0 Bft) 97,87 %
02.01.2021 04:38 1,7 C 1,1 C 1,1 C 95 % 1013,3 hPa 0,0 l/m 0 min 0 min 0 W/m 0,0 km/h (0 Bft) 100,00 %
02.01.2021 04:40 1,7 C 1,1 C 1,1 C 95 % 1013,3 hPa 0,0 l/m 0 min 0 min 0 W/m 0,0 km/h (0 Bft) 100,00 %
02.01.2021 04:42 1,7 C 1,1 C 1,1 C 95 % 1013,3 hPa 0,0 l/m 0 min 0 min 0 W/m 0,0 km/h (0 Bft) 97,87 %
02.01.2021 04:44 1,7 C 1,1 C 1,1 C 95 % 1013,3 hPa 0,0 l/m 0 min 0 min 0 W/m 0,0 km/h (0 Bft) 97,87 %
02.01.2021 04:46 1,7 C 1,1 C 1,1 C 95 % 1013,3 hPa 0,0 l/m 0 min 0 min 0 W/m 0,0 km/h (0 Bft) 100,00 %
02.01.2021 04:48 1,7 C 1,1 C 1,1 C 95 % 1013,3 hPa 0,0 l/m 0 min 0 min 0 W/m 0,0 km/h (0 Bft) 97,87 %
02.01.2021 04:50 1,7 C 1,1 C 1,1 C 95 % 1013,3 hPa 0,0 l/m 0 min 0 min 0 W/m 0,0 km/h (0 Bft) 97,87 %
02.01.2021 04:52 1,7 C 1,1 C 1,1 C 95 % 1013,4 hPa 0,0 l/m 0 min 0 min 0 W/m 0,0 km/h (0 Bft) 97,87 %
02.01.2021 04:54 1,7 C 1,1 C 1,1 C 95 % 1013,4 hPa 0,0 l/m 0 min 0 min 0 W/m 0,0 km/h (0 Bft) 97,87 %
02.01.2021 04:56 1,7 C 1,1 C 1,1 C 95 % 1013,3 hPa 0,0 l/m 0 min 0 min 0 W/m 0,0 km/h (0 Bft) 97,87 %
02.01.2021 04:58 1,7 C 1,1 C 1,1 C 95 % 1013,3 hPa 0,0 l/m 0 min 0 min 0 W/m 0,0 km/h (0 Bft) 97,83 %
02.01.2021 05:00 1,7 C 1,1 C 1,1 C 95 % 1013,3 hPa 0,0 l/m 0 min 0 min 0 W/m 0,0 km/h (0 Bft) 97,87 %
02.01.2021 05:02 1,7 C 1,1 C 1,1 C 95 % 1013,3 hPa 0,0 l/m 0 min 0 min 0 W/m 0,0 km/h (0 Bft) 95,74 %
02.01.2021 05:04 1,7 C 1,1 C 1,1 C 95 % 1013,2 hPa 0,0 l/m 0 min 0 min 0 W/m 0,0 km/h (0 Bft) 95,74 %
02.01.2021 05:06 1,7 C 1,1 C 1,1 C 95 % 1013,3 hPa 0,0 l/m 0 min 0 min 0 W/m 0,0 km/h (0 Bft) 97,87 %
02.01.2021 05:08 1,7 C 1,1 C 1,1 C 95 % 1013,3 hPa 0,0 l/m 0 min 0 min 0 W/m 0,0 km/h (0 Bft) 97,87 %
02.01.2021 05:10 1,7 C 1,1 C 1,1 C 95 % 1013,3 hPa 0,0 l/m 0 min 0 min 0 W/m 0,0 km/h (0 Bft) 97,83 %
02.01.2021 05:12 1,7 C 1,1 C 1,1 C 95 % 1013,2 hPa 0,0 l/m 0 min 0 min 0 W/m 0,0 km/h (0 Bft) 95,74 %
02.01.2021 05:14 1,8 C 1,1 C 1,1 C 95 % 1013,3 hPa 0,0 l/m 0 min 0 min 0 W/m 0,0 km/h (0 Bft) 97,87 %
02.01.2021 05:16 1,8 C 1,1 C 1,1 C 95 % 1013,3 hPa 0,0 l/m 0 min 0 min 0 W/m 0,0 km/h (0 Bft) 97,87 %
02.01.2021 05:18 1,8 C 1,1 C 1,1 C 95 % 1013,3 hPa 0,0 l/m 0 min 0 min 0 W/m 0,0 km/h (0 Bft) 97,87 %
02.01.2021 05:20 1,7 C 1,1 C 1,1 C 95 % 1013,2 hPa 0,0 l/m 0 min 0 min 0 W/m 3,2 km/h (1 Bft) 97,87 %
02.01.2021 05:22 1,7 C 1,1 C 1,1 C 95 % 1013,3 hPa 0,0 l/m 0 min 0 min 0 W/m 0,0 km/h (0 Bft) 97,83 %
02.01.2021 05:24 1,7 C 1,1 C 1,1 C 95 % 1013,2 hPa 0,0 l/m 0 min 0 min 0 W/m 0,0 km/h (0 Bft) 95,74 %
02.01.2021 05:26 1,7 C 1,1 C 1,1 C 95 % 1013,2 hPa 0,0 l/m 0 min 0 min 0 W/m 0,0 km/h (0 Bft) 97,87 %
02.01.2021 05:28 1,7 C 1,1 C 1,1 C 95 % 1013,3 hPa 0,0 l/m 0 min 0 min 0 W/m 0,0 km/h (0 Bft) 97,87 %
02.01.2021 05:30 1,7 C 1,1 C 1,1 C 95 % 1013,2 hPa 0,0 l/m 0 min 0 min 0 W/m 0,0 km/h (0 Bft) 89,36 %
02.01.2021 05:32 1,7 C 1,1 C 1,1 C 95 % 1013,2 hPa 0,0 l/m 0 min 0 min 0 W/m 0,0 km/h (0 Bft) 58,54 %
02.01.2021 05:34 1,7 C 1,1 C 1,1 C 95 % 1013,2 hPa 0,0 l/m 0 min 0 min 0 W/m 0,0 km/h (0 Bft) 100,00 %
02.01.2021 05:36 1,7 C 1,1 C 1,1 C 95 % 1013,2 hPa 0,0 l/m 0 min 0 min 0 W/m 0,0 km/h (0 Bft) 100,00 %
02.01.2021 05:38 1,7 C 1,1 C 1,1 C 95 % 1013,3 hPa 0,0 l/m 0 min 0 min 0 W/m 0,0 km/h (0 Bft) 97,87 %
02.01.2021 05:40 1,8 C 1,1 C 1,1 C 95 % 1013,3 hPa 0,0 l/m 0 min 0 min 0 W/m 0,0 km/h (0 Bft) 100,00 %
02.01.2021 05:42 1,8 C 1,1 C 1,1 C 95 % 1013,3 hPa 0,0 l/m 0 min 0 min 0 W/m 0,0 km/h (0 Bft) 100,00 %
02.01.2021 05:44 1,8 C 1,1 C 1,1 C 95 % 1013,3 hPa 0,0 l/m 0 min 0 min 0 W/m 19,3 km/h (3 Bft) 100,00 %
02.01.2021 05:46 1,8 C 1,1 C 1,1 C 95 % 1013,3 hPa 0,0 l/m 0 min 0 min 0 W/m 0,0 km/h (0 Bft) 97,87 %
02.01.2021 05:48 1,8 C 1,1 C 1,1 C 95 % 1013,3 hPa 0,0 l/m 0 min 0 min 0 W/m 0,0 km/h (0 Bft) 100,00 %
02.01.2021 05:50 1,8 C 1,1 C 1,1 C 95 % 1013,3 hPa 0,0 l/m 0 min 0 min 0 W/m 3,2 km/h (1 Bft) 97,87 %
02.01.2021 05:52 1,8 C 1,1 C 1,1 C 95 % 1013,3 hPa 0,0 l/m 0 min 0 min 0 W/m 0,0 km/h (0 Bft) 100,00 %
02.01.2021 05:54 1,8 C 1,1 C 1,1 C 95 % 1013,3 hPa 0,0 l/m 0 min 0 min 0 W/m 3,2 km/h (1 Bft) 97,87 %
02.01.2021 05:56 1,8 C 1,1 C 1,1 C 95 % 1013,3 hPa 0,0 l/m 0 min 0 min 0 W/m 0,0 km/h (0 Bft) 100,00 %
02.01.2021 05:58 1,8 C 1,1 C 1,1 C 95 % 1013,3 hPa 0,0 l/m 0 min 0 min 0 W/m 0,0 km/h (0 Bft) 100,00 %
02.01.2021 06:00 1,8 C 1,1 C 1,1 C 95 % 1013,3 hPa 0,0 l/m 0 min 0 min 0 W/m 0,0 km/h (0 Bft) 100,00 %
02.01.2021 06:02 1,8 C 1,1 C 1,1 C 95 % 1013,3 hPa 0,0 l/m 0 min 0 min 0 W/m 0,0 km/h (0 Bft) 100,00 %
02.01.2021 06:04 1,8 C 1,1 C 1,1 C 95 % 1013,3 hPa 0,0 l/m 0 min 0 min 0 W/m 0,0 km/h (0 Bft) 97,87 %
02.01.2021 06:06 1,8 C 1,1 C 1,1 C 95 % 1013,3 hPa 0,0 l/m 0 min 0 min 0 W/m 0,0 km/h (0 Bft) 95,74 %
02.01.2021 06:08 1,8 C 1,1 C 1,1 C 95 % 1013,3 hPa 0,0 l/m 0 min 0 min 0 W/m 3,2 km/h (1 Bft) 97,83 %
02.01.2021 06:10 1,8 C 1,1 C 1,1 C 95 % 1013,3 hPa 0,0 l/m 0 min 0 min 0 W/m 0,0 km/h (0 Bft) 97,87 %
02.01.2021 06:12 1,8 C 1,1 C 1,1 C 95 % 1013,3 hPa 0,0 l/m 0 min 0 min 0 W/m 0,0 km/h (0 Bft) 95,74 %
02.01.2021 06:14 1,8 C 1,1 C 1,1 C 95 % 1013,4 hPa 0,0 l/m 0 min 0 min 0 W/m 0,0 km/h (0 Bft) 97,87 %
02.01.2021 06:16 1,8 C 1,1 C 1,1 C 95 % 1013,3 hPa 0,0 l/m 0 min 0 min 0 W/m 0,0 km/h (0 Bft) 97,87 %
02.01.2021 06:18 1,8 C 1,1 C 1,1 C 95 % 1013,4 hPa 0,0 l/m 0 min 0 min 0 W/m 0,0 km/h (0 Bft) 97,87 %
02.01.2021 06:20 1,8 C 1,1 C 1,1 C 95 % 1013,3 hPa 0,0 l/m 0 min 0 min 0 W/m 3,2 km/h (1 Bft) 95,65 %
02.01.2021 06:22 1,8 C 1,1 C 1,1 C 95 % 1013,4 hPa 0,0 l/m 0 min 0 min 0 W/m 0,0 km/h (0 Bft) 97,67 %
02.01.2021 06:24 1,8 C 1,7 C 1,1 C 95 % 1013,4 hPa 0,0 l/m 0 min 0 min 0 W/m 0,0 km/h (0 Bft) 57,14 %
02.01.2021 06:26 1,8 C 1,1 C 1,1 C 95 % 1013,4 hPa 0,0 l/m 0 min 0 min 0 W/m 3,2 km/h (1 Bft) 93,62 %
02.01.2021 06:28 1,8 C 1,7 C 1,1 C 95 % 1013,4 hPa 0,0 l/m 0 min 0 min 0 W/m 0,0 km/h (0 Bft) 97,83 %
02.01.2021 06:30 1,9 C 1,1 C 1,1 C 95 % 1013,4 hPa 0,0 l/m 0 min 0 min 0 W/m 0,0 km/h (0 Bft) 97,96 %
02.01.2021 06:32 1,8 C 1,7 C 1,1 C 95 % 1013,4 hPa 0,0 l/m 0 min 0 min 0 W/m 0,0 km/h (0 Bft) 97,14 %
02.01.2021 06:34 1,9 C 1,7 C 1,1 C 95 % 1013,5 hPa 0,0 l/m 0 min 0 min 0 W/m 0,0 km/h (0 Bft) 95,74 %
02.01.2021 06:36 1,9 C 1,7 C 1,1 C 95 % 1013,5 hPa 0,0 l/m 0 min 0 min 0 W/m 3,2 km/h (1 Bft) 97,83 %
02.01.2021 06:38 1,9 C 1,7 C 1,1 C 95 % 1013,5 hPa 0,0 l/m 0 min 0 min 0 W/m 0,0 km/h (0 Bft) 96,36 %
02.01.2021 06:40 1,9 C 1,7 C 1,1 C 95 % 1013,5 hPa 0,0 l/m 0 min 0 min 0 W/m 0,0 km/h (0 Bft) 95,65 %
02.01.2021 06:42 1,9 C 1,7 C 1,1 C 95 % 1013,5 hPa 0,0 l/m 0 min 0 min 0 W/m 0,0 km/h (0 Bft) 95,74 %
02.01.2021 06:44 1,9 C 1,7 C 1,1 C 95 % 1013,5 hPa 0,0 l/m 0 min 0 min 0 W/m 0,0 km/h (0 Bft) 96,00 %
02.01.2021 06:46 1,9 C 1,7 C 1,1 C 95 % 1013,5 hPa 0,0 l/m 0 min 0 min 0 W/m 0,0 km/h (0 Bft) 95,74 %
02.01.2021 06:48 1,9 C 1,7 C 1,1 C 95 % 1013,5 hPa 0,0 l/m 0 min 0 min 0 W/m 0,0 km/h (0 Bft) 95,74 %
02.01.2021 06:50 1,9 C 1,7 C 1,1 C 95 % 1013,5 hPa 0,0 l/m 0 min 0 min 0 W/m 0,0 km/h (0 Bft) 95,65 %
02.01.2021 06:52 1,9 C 1,7 C 1,1 C 95 % 1013,5 hPa 0,0 l/m 0 min 0 min 0 W/m 0,0 km/h (0 Bft) 95,92 %
02.01.2021 06:54 1,9 C 1,7 C 1,1 C 95 % 1013,6 hPa 0,0 l/m 0 min 0 min 0 W/m 0,0 km/h (0 Bft) 95,74 %
02.01.2021 06:56 1,9 C 1,7 C 1,1 C 95 % 1013,6 hPa 0,0 l/m 0 min 0 min 0 W/m 0,0 km/h (0 Bft) 95,65 %
02.01.2021 06:58 1,9 C 1,7 C 1,1 C 95 % 1013,6 hPa 0,0 l/m 0 min 0 min 0 W/m 0,0 km/h (0 Bft) 97,87 %
02.01.2021 07:00 1,9 C 1,7 C 1,1 C 95 % 1013,6 hPa 0,0 l/m 0 min 0 min 0 W/m 0,0 km/h (0 Bft) 97,87 %
02.01.2021 07:02 1,9 C 1,7 C 1,1 C 95 % 1013,7 hPa 0,0 l/m 0 min 0 min 0 W/m 0,0 km/h (0 Bft) 95,74 %
02.01.2021 07:04 1,9 C 1,7 C 1,1 C 95 % 1013,7 hPa 0,0 l/m 0 min 0 min 0 W/m 0,0 km/h (0 Bft) 97,87 %
02.01.2021 07:06 1,9 C 1,7 C 1,1 C 95 % 1013,7 hPa 0,0 l/m 0 min 0 min 0 W/m 0,0 km/h (0 Bft) 97,87 %
02.01.2021 07:08 1,9 C 1,7 C 1,1 C 95 % 1013,7 hPa 0,0 l/m 0 min 0 min 0 W/m 0,0 km/h (0 Bft) 97,83 %
02.01.2021 07:10 1,9 C 1,7 C 1,1 C 95 % 1013,7 hPa 0,0 l/m 0 min 0 min 0 W/m 0,0 km/h (0 Bft) 95,74 %
02.01.2021 07:12 1,9 C 1,7 C 1,1 C 95 % 1013,7 hPa 0,0 l/m 0 min 0 min 0 W/m 0,0 km/h (0 Bft) 95,74 %
02.01.2021 07:14 1,9 C 1,7 C 1,1 C 95 % 1013,8 hPa 0,0 l/m 0 min 0 min 0 W/m 0,0 km/h (0 Bft) 97,87 %
02.01.2021 07:16 1,9 C 1,7 C 1,1 C 95 % 1013,8 hPa 0,0 l/m 0 min 0 min 0 W/m 0,0 km/h (0 Bft) 97,87 %
02.01.2021 07:18 1,9 C 1,7 C 1,1 C 95 % 1013,8 hPa 0,0 l/m 0 min 0 min 0 W/m 0,0 km/h (0 Bft) 97,83 %
02.01.2021 07:20 1,9 C 1,7 C 1,1 C 95 % 1013,8 hPa 0,0 l/m 0 min 0 min 0 W/m 0,0 km/h (0 Bft) 95,74 %
02.01.2021 07:22 1,9 C 1,7 C 1,1 C 95 % 1013,8 hPa 0,0 l/m 0 min 0 min 0 W/m 0,0 km/h (0 Bft) 97,87 %
02.01.2021 07:24 2,0 C 1,7 C 1,1 C 95 % 1013,8 hPa 0,0 l/m 0 min 0 min 0 W/m 0,0 km/h (0 Bft) 95,74 %
02.01.2021 07:26 2,0 C 1,7 C 1,1 C 95 % 1013,8 hPa 0,0 l/m 0 min 0 min 0 W/m 0,0 km/h (0 Bft) 92,68 %
02.01.2021 07:28 2,0 C 1,7 C 1,1 C 95 % 1013,8 hPa 0,0 l/m 0 min 0 min 0 W/m 0,0 km/h (0 Bft) 95,74 %
02.01.2021 07:30 2,0 C 1,7 C 1,1 C 95 % 1013,7 hPa 0,0 l/m 0 min 0 min 0 W/m 0,0 km/h (0 Bft) 95,74 %
02.01.2021 07:32 2,0 C 1,7 C 1,1 C 95 % 1013,8 hPa 0,0 l/m 0 min 0 min 0 W/m 0,0 km/h (0 Bft) 96,00 %
02.01.2021 07:34 2,0 C 1,7 C 1,1 C 95 % 1013,8 hPa 0,0 l/m 0 min 0 min 0 W/m 0,0 km/h (0 Bft) 95,74 %
02.01.2021 07:36 2,0 C 1,7 C 1,1 C 95 % 1013,8 hPa 0,0 l/m 0 min 0 min 0 W/m 0,0 km/h (0 Bft) 95,92 %
02.01.2021 07:38 2,0 C 1,7 C 1,1 C 95 % 1013,8 hPa 0,0 l/m 0 min 0 min 0 W/m 0,0 km/h (0 Bft) 95,74 %
02.01.2021 07:40 2,0 C 1,7 C 1,1 C 95 % 1013,8 hPa 0,0 l/m 0 min 0 min 0 W/m 0,0 km/h (0 Bft) 93,62 %
02.01.2021 07:42 2,0 C 1,7 C 1,1 C 95 % 1013,8 hPa 0,0 l/m 0 min 0 min 0 W/m 0,0 km/h (0 Bft) 93,48 %
02.01.2021 07:44 2,0 C 1,7 C 1,1 C 95 % 1013,8 hPa 0,0 l/m 0 min 0 min 0 W/m 0,0 km/h (0 Bft) 95,24 %
02.01.2021 07:46 2,0 C 1,7 C 1,1 C 95 % 1013,8 hPa 0,0 l/m 0 min 0 min 0 W/m 0,0 km/h (0 Bft) 93,62 %
02.01.2021 07:48 2,0 C 1,7 C 1,1 C 95 % 1013,8 hPa 0,0 l/m 0 min 0 min 0 W/m 0,0 km/h (0 Bft) 93,62 %
02.01.2021 07:50 2,0 C 1,7 C 1,1 C 95 % 1013,8 hPa 0,0 l/m 0 min 0 min 0 W/m 0,0 km/h (0 Bft) 95,65 %
02.01.2021 07:52 2,0 C 1,7 C 1,1 C 95 % 1013,8 hPa 0,0 l/m 0 min 0 min 0 W/m 0,0 km/h (0 Bft) 93,62 %
02.01.2021 07:54 2,0 C 1,7 C 1,1 C 95 % 1013,9 hPa 0,0 l/m 0 min 0 min 0 W/m 0,0 km/h (0 Bft) 95,74 %
02.01.2021 07:56 2,0 C 1,7 C 1,1 C 95 % 1013,9 hPa 0,0 l/m 0 min 0 min 0 W/m 0,0 km/h (0 Bft) 95,74 %
02.01.2021 07:58 1,9 C 1,7 C 1,1 C 95 % 1013,8 hPa 0,0 l/m 0 min 0 min 0 W/m 0,0 km/h (0 Bft) 95,74 %
02.01.2021 08:00 1,9 C 1,7 C 1,1 C 95 % 1013,8 hPa 0,0 l/m 0 min 0 min 0 W/m 3,2 km/h (1 Bft) 95,65 %
02.01.2021 08:02 1,9 C 1,7 C 1,1 C 95 % 1013,9 hPa 0,0 l/m 0 min 0 min 0 W/m 0,0 km/h (0 Bft) 95,74 %
02.01.2021 08:04 1,9 C 1,7 C 1,1 C 95 % 1013,9 hPa 0,0 l/m 0 min 0 min 0 W/m 3,2 km/h (1 Bft) 95,45 %
02.01.2021 08:06 1,9 C 1,7 C 1,1 C 95 % 1013,9 hPa 0,0 l/m 0 min 0 min 0 W/m 0,0 km/h (0 Bft) 95,74 %
02.01.2021 08:08 1,9 C 1,7 C 1,1 C 95 % 1014,0 hPa 0,0 l/m 0 min 0 min 0 W/m 3,2 km/h (1 Bft) 98,11 %
02.01.2021 08:10 1,9 C 1,7 C 1,1 C 95 % 1014,0 hPa 0,0 l/m 0 min 0 min 0 W/m 0,0 km/h (0 Bft) 57,45 %
02.01.2021 08:12 1,9 C 1,7 C 1,1 C 95 % 1014,0 hPa 0,0 l/m 0 min 0 min 0 W/m 0,0 km/h (0 Bft) 97,87 %
02.01.2021 08:14 1,9 C 1,7 C 1,1 C 95 % 1014,0 hPa 0,0 l/m 0 min 0 min 0 W/m 0,0 km/h (0 Bft) 95,74 %
02.01.2021 08:16 1,9 C 1,7 C 1,1 C 95 % 1014,0 hPa 0,0 l/m 0 min 0 min 0 W/m 0,0 km/h (0 Bft) 97,96 %
02.01.2021 08:18 1,9 C 1,7 C 1,1 C 95 % 1014,0 hPa 0,0 l/m 0 min 0 min 0 W/m 0,0 km/h (0 Bft) 97,87 %
02.01.2021 08:20 1,9 C 1,7 C 1,1 C 95 % 1014,0 hPa 0,0 l/m 0 min 0 min 0 W/m 0,0 km/h (0 Bft) 97,14 %
02.01.2021 08:22 1,9 C 1,7 C 1,1 C 95 % 1014,1 hPa 0,0 l/m 0 min 0 min 0 W/m 0,0 km/h (0 Bft) 97,87 %
02.01.2021 08:24 1,9 C 1,7 C 1,1 C 95 % 1014,0 hPa 0,0 l/m 0 min 0 min 0 W/m 0,0 km/h (0 Bft) 98,11 %
02.01.2021 08:26 1,9 C 1,7 C 1,1 C 95 % 1014,1 hPa 0,0 l/m 0 min 0 min 0 W/m 6,4 km/h (2 Bft) 98,00 %
02.01.2021 08:28 1,9 C 1,1 C 1,1 C 95 % 1014,1 hPa 0,0 l/m 0 min 0 min 0 W/m 0,0 km/h (0 Bft) 97,96 %
02.01.2021 08:30 1,9 C 1,1 C 1,1 C 95 % 1014,1 hPa 0,0 l/m 0 min 0 min 0 W/m 0,0 km/h (0 Bft) 95,74 %
02.01.2021 08:32 1,9 C 1,7 C 1,1 C 95 % 1014,1 hPa 0,0 l/m 0 min 0 min 0 W/m 0,0 km/h (0 Bft) 97,87 %
02.01.2021 08:34 1,9 C 1,7 C 1,1 C 95 % 1014,1 hPa 0,0 l/m 0 min 0 min 0 W/m 0,0 km/h (0 Bft) 100,00 %
02.01.2021 08:36 1,9 C 1,7 C 1,1 C 95 % 1014,2 hPa 0,0 l/m 0 min 0 min 0 W/m 0,0 km/h (0 Bft) 94,34 %
02.01.2021 08:38 1,9 C 1,7 C 1,1 C 95 % 1014,2 hPa 0,0 l/m 0 min 0 min 0 W/m 0,0 km/h (0 Bft) 96,00 %
02.01.2021 08:40 1,9 C 1,7 C 1,1 C 95 % 1014,2 hPa 0,0 l/m 0 min 0 min 0 W/m 0,0 km/h (0 Bft) 97,87 %
02.01.2021 08:42 1,9 C 1,7 C 1,1 C 95 % 1014,2 hPa 0,0 l/m 0 min 0 min 0 W/m 0,0 km/h (0 Bft) 97,87 %
02.01.2021 08:44 1,9 C 1,7 C 1,1 C 95 % 1014,2 hPa 0,0 l/m 0 min 0 min 0 W/m 0,0 km/h (0 Bft) 97,87 %
02.01.2021 08:46 1,9 C 1,7 C 1,1 C 95 % 1014,3 hPa 0,0 l/m 0 min 0 min 0 W/m 0,0 km/h (0 Bft) 95,92 %
02.01.2021 08:48 1,9 C 1,7 C 1,1 C 95 % 1014,2 hPa 0,0 l/m 0 min 0 min 0 W/m 0,0 km/h (0 Bft) 97,87 %
02.01.2021 08:50 1,9 C 1,7 C 1,1 C 95 % 1014,3 hPa 0,0 l/m 0 min 0 min 0 W/m 0,0 km/h (0 Bft) 97,87 %
02.01.2021 08:52 1,9 C 1,7 C 1,1 C 95 % 1014,3 hPa 0,0 l/m 0 min 0 min 0 W/m 3,2 km/h (1 Bft) 97,83 %
02.01.2021 08:54 1,9 C 1,7 C 1,1 C 95 % 1014,3 hPa 0,0 l/m 0 min 0 min 0 W/m 3,2 km/h (1 Bft) 97,87 %
02.01.2021 08:56 1,9 C 1,7 C 1,1 C 95 % 1014,3 hPa 0,0 l/m 0 min 0 min 0 W/m 0,0 km/h (0 Bft) 97,14 %
02.01.2021 08:58 1,9 C 1,7 C 1,1 C 95 % 1014,4 hPa 0,0 l/m 0 min 0 min 5 W/m 0,0 km/h (0 Bft) 95,74 %
02.01.2021 09:00 1,9 C 1,7 C 1,1 C 95 % 1014,3 hPa 0,0 l/m 0 min 0 min 6 W/m 0,0 km/h (0 Bft) 93,62 %
02.01.2021 09:02 1,9 C 1,7 C 1,1 C 95 % 1014,4 hPa 0,0 l/m 0 min 0 min 7 W/m 0,0 km/h (0 Bft) 95,74 %
02.01.2021 09:04 1,9 C 1,7 C 1,1 C 95 % 1014,3 hPa 0,0 l/m 0 min 0 min 7 W/m 0,0 km/h (0 Bft) 96,00 %
02.01.2021 09:06 1,9 C 1,7 C 1,1 C 95 % 1014,3 hPa 0,0 l/m 0 min 0 min 7 W/m 0,0 km/h (0 Bft) 93,48 %
02.01.2021 09:08 1,9 C 1,7 C 1,1 C 95 % 1014,4 hPa 0,0 l/m 0 min 0 min 7 W/m 0,0 km/h (0 Bft) 96,23 %
02.01.2021 09:10 1,9 C 1,7 C 1,1 C 95 % 1014,4 hPa 0,0 l/m 0 min 0 min 7 W/m 0,0 km/h (0 Bft) 96,00 %
02.01.2021 09:12 1,9 C 1,7 C 1,1 C 95 % 1014,3 hPa 0,0 l/m 0 min 0 min 9 W/m 0,0 km/h (0 Bft) 91,49 %
02.01.2021 09:14 1,9 C 1,7 C 1,1 C 95 % 1014,4 hPa 0,0 l/m 0 min 0 min 10 W/m 0,0 km/h (0 Bft) 91,49 %
02.01.2021 09:16 1,9 C 1,7 C 1,1 C 95 % 1014,4 hPa 0,0 l/m 0 min 0 min 12 W/m 0,0 km/h (0 Bft) 93,62 %
02.01.2021 09:18 1,9 C 1,7 C 1,1 C 95 % 1014,4 hPa 0,0 l/m 0 min 0 min 12 W/m 0,0 km/h (0 Bft) 94,59 %
02.01.2021 09:20 1,9 C 1,7 C 1,1 C 95 % 1014,4 hPa 0,0 l/m 0 min 0 min 14 W/m 0,0 km/h (0 Bft) 95,74 %
02.01.2021 09:22 1,9 C 1,7 C 1,1 C 95 % 1014,5 hPa 0,0 l/m 0 min 0 min 14 W/m 0,0 km/h (0 Bft) 95,74 %
02.01.2021 09:24 1,9 C 1,7 C 1,1 C 95 % 1014,4 hPa 0,0 l/m 0 min 0 min 14 W/m 0,0 km/h (0 Bft) 95,74 %
02.01.2021 09:26 1,9 C 1,7 C 1,1 C 95 % 1014,5 hPa 0,0 l/m 0 min 0 min 12 W/m 0,0 km/h (0 Bft) 94,34 %
02.01.2021 09:28 1,9 C 1,7 C 1,1 C 95 % 1014,5 hPa 0,0 l/m 0 min 0 min 12 W/m 0,0 km/h (0 Bft) 95,74 %
02.01.2021 09:30 1,9 C 1,7 C 1,1 C 95 % 1014,5 hPa 0,0 l/m 0 min 0 min 12 W/m 0,0 km/h (0 Bft) 95,74 %
02.01.2021 09:32 1,9 C 1,7 C 1,1 C 95 % 1014,5 hPa 0,0 l/m 0 min 0 min 12 W/m 0,0 km/h (0 Bft) 93,88 %
02.01.2021 09:34 1,9 C 1,7 C 1,1 C 95 % 1014,6 hPa 0,0 l/m 0 min 0 min 14 W/m 0,0 km/h (0 Bft) 93,62 %
02.01.2021 09:36 1,9 C 1,7 C 1,1 C 95 % 1014,6 hPa 0,0 l/m 0 min 0 min 18 W/m 0,0 km/h (0 Bft) 95,74 %
02.01.2021 09:38 1,9 C 1,1 C 1,1 C 95 % 1014,6 hPa 0,0 l/m 0 min 0 min 18 W/m 0,0 km/h (0 Bft) 95,74 %
02.01.2021 09:40 1,8 C 1,1 C 1,1 C 95 % 1014,5 hPa 0,0 l/m 0 min 0 min 19 W/m 3,2 km/h (1 Bft) 95,74 %
02.01.2021 09:42 1,9 C 1,1 C 1,1 C 95 % 1014,5 hPa 0,0 l/m 0 min 0 min 19 W/m 0,0 km/h (0 Bft) 94,59 %
02.01.2021 09:44 1,8 C 1,1 C 1,1 C 95 % 1014,6 hPa 0,0 l/m 0 min 0 min 21 W/m 0,0 km/h (0 Bft) 95,74 %
02.01.2021 09:46 1,8 C 1,1 C 1,1 C 95 % 1014,6 hPa 0,0 l/m 0 min 0 min 21 W/m 3,2 km/h (1 Bft) 93,62 %
02.01.2021 09:48 1,8 C 1,1 C 1,1 C 95 % 1014,6 hPa 0,0 l/m 0 min 0 min 19 W/m 3,2 km/h (1 Bft) 92,45 %
02.01.2021 09:50 1,9 C 1,1 C 1,1 C 95 % 1014,6 hPa 0,0 l/m 0 min 0 min 19 W/m 0,0 km/h (0 Bft) 96,00 %
02.01.2021 09:52 1,9 C 1,7 C 1,1 C 95 % 1014,6 hPa 0,0 l/m 0 min 0 min 20 W/m 0,0 km/h (0 Bft) 97,87 %
02.01.2021 09:54 1,9 C 1,7 C 1,1 C 95 % 1014,7 hPa 0,0 l/m 0 min 0 min 21 W/m 3,2 km/h (1 Bft) 97,83 %
02.01.2021 09:56 1,8 C 1,7 C 1,1 C 95 % 1014,7 hPa 0,0 l/m 0 min 0 min 23 W/m 0,0 km/h (0 Bft) 95,74 %
02.01.2021 09:58 1,9 C 1,7 C 1,1 C 95 % 1014,7 hPa 0,0 l/m 0 min 0 min 22 W/m 0,0 km/h (0 Bft) 95,74 %
02.01.2021 10:00 1,9 C 1,7 C 1,1 C 95 % 1014,7 hPa 0,0 l/m 0 min 0 min 21 W/m 0,0 km/h (0 Bft) 97,37 %
02.01.2021 10:02 1,9 C 1,7 C 1,1 C 95 % 1014,7 hPa 0,0 l/m 0 min 0 min 23 W/m 0,0 km/h (0 Bft) 97,87 %
02.01.2021 10:04 1,9 C 1,7 C 1,1 C 95 % 1014,7 hPa 0,0 l/m 0 min 0 min 25 W/m 0,0 km/h (0 Bft) 97,83 %
02.01.2021 10:06 1,9 C 1,7 C 1,6 C 95 % 1014,7 hPa 0,0 l/m 0 min 0 min 26 W/m 0,0 km/h (0 Bft) 96,23 %
02.01.2021 10:08 1,9 C 1,7 C 1,6 C 95 % 1014,7 hPa 0,0 l/m 0 min 0 min 26 W/m 0,0 km/h (0 Bft) 97,87 %
02.01.2021 10:10 1,9 C 1,7 C 1,1 C 95 % 1014,8 hPa 0,0 l/m 0 min 0 min 28 W/m 0,0 km/h (0 Bft) 96,00 %
02.01.2021 10:12 1,9 C 1,7 C 1,6 C 95 % 1014,8 hPa 0,0 l/m 0 min 0 min 27 W/m 0,0 km/h (0 Bft) 97,37 %
02.01.2021 10:14 1,9 C 1,7 C 1,6 C 95 % 1014,8 hPa 0,0 l/m 0 min 0 min 26 W/m 12,9 km/h (3 Bft) 95,65 %
02.01.2021 10:16 1,9 C 1,7 C 1,6 C 95 % 1014,9 hPa 0,0 l/m 0 min 0 min 26 W/m 0,0 km/h (0 Bft) 97,87 %
02.01.2021 10:18 1,9 C 1,7 C 1,6 C 95 % 1014,9 hPa 0,0 l/m 0 min 0 min 27 W/m 0,0 km/h (0 Bft) 97,87 %
02.01.2021 10:20 1,9 C 1,7 C 1,1 C 95 % 1014,9 hPa 0,0 l/m 0 min 0 min 28 W/m 0,0 km/h (0 Bft) 93,62 %
02.01.2021 10:22 1,9 C 1,7 C 1,6 C 95 % 1014,9 hPa 0,0 l/m 0 min 0 min 30 W/m 0,0 km/h (0 Bft) 97,87 %
02.01.2021 10:24 1,9 C 1,7 C 1,6 C 95 % 1015,0 hPa 0,0 l/m 0 min 0 min 30 W/m 3,2 km/h (1 Bft) 97,87 %
02.01.2021 10:26 1,9 C 1,7 C 1,6 C 95 % 1015,0 hPa 0,0 l/m 0 min 0 min 32 W/m 3,2 km/h (1 Bft) 97,83 %
02.01.2021 10:28 1,9 C 1,7 C 1,6 C 95 % 1015,0 hPa 0,0 l/m 0 min 0 min 30 W/m 0,0 km/h (0 Bft) 98,15 %
02.01.2021 10:30 1,9 C 1,7 C 1,6 C 95 % 1015,0 hPa 0,0 l/m 0 min 0 min 31 W/m 0,0 km/h (0 Bft) 93,48 %
02.01.2021 10:32 1,9 C 1,7 C 1,6 C 95 % 1015,0 hPa 0,0 l/m 0 min 0 min 33 W/m 0,0 km/h (0 Bft) 96,08 %
02.01.2021 10:34 2,0 C 2,2 C 1,6 C 95 % 1015,0 hPa 0,0 l/m 0 min 0 min 37 W/m 0,0 km/h (0 Bft) 100,00 %
02.01.2021 10:36 2,0 C 2,2 C 1,6 C 95 % 1015,0 hPa 0,0 l/m 0 min 0 min 39 W/m 0,0 km/h (0 Bft) 97,87 %
02.01.2021 10:38 2,0 C 2,2 C 1,6 C 95 % 1015,0 hPa 0,0 l/m 0 min 0 min 35 W/m 0,0 km/h (0 Bft) 96,30 %
02.01.2021 10:40 2,0 C 2,2 C 1,6 C 95 % 1015,1 hPa 0,0 l/m 0 min 0 min 33 W/m 0,0 km/h (0 Bft) 95,65 %
02.01.2021 10:42 2,0 C 2,2 C 1,6 C 95 % 1015,0 hPa 0,0 l/m 0 min 0 min 34 W/m 0,0 km/h (0 Bft) 97,87 %
02.01.2021 10:44 2,0 C 2,2 C 1,6 C 95 % 1015,1 hPa 0,0 l/m 0 min 0 min 37 W/m 0,0 km/h (0 Bft) 97,87 %
02.01.2021 10:46 2,0 C 2,2 C 1,6 C 95 % 1015,1 hPa 0,0 l/m 0 min 0 min 39 W/m 0,0 km/h (0 Bft) 97,87 %
02.01.2021 10:48 2,1 C 2,2 C 1,6 C 95 % 1015,1 hPa 0,0 l/m 0 min 0 min 43 W/m 0,0 km/h (0 Bft) 98,00 %
02.01.2021 10:50 2,1 C 2,2 C 1,6 C 95 % 1015,1 hPa 0,0 l/m 0 min 0 min 46 W/m 0,0 km/h (0 Bft) 97,87 %
02.01.2021 10:52 2,1 C 2,2 C 1,6 C 95 % 1015,1 hPa 0,0 l/m 0 min 0 min 46 W/m 0,0 km/h (0 Bft) 100,00 %
02.01.2021 10:54 2,1 C 2,2 C 1,6 C 95 % 1015,1 hPa 0,0 l/m 0 min 0 min 46 W/m 0,0 km/h (0 Bft) 100,00 %
02.01.2021 10:56 2,1 C 2,2 C 1,6 C 95 % 1015,1 hPa 0,0 l/m 0 min 0 min 42 W/m 0,0 km/h (0 Bft) 100,00 %
02.01.2021 10:58 2,1 C 2,2 C 1,6 C 95 % 1015,1 hPa 0,0 l/m 0 min 0 min 39 W/m 0,0 km/h (0 Bft) 97,87 %
02.01.2021 11:00 2,1 C 2,2 C 1,6 C 95 % 1015,1 hPa 0,0 l/m 0 min 0 min 39 W/m 0,0 km/h (0 Bft) 100,00 %
02.01.2021 11:02 2,1 C 2,2 C 1,6 C 95 % 1015,2 hPa 0,0 l/m 0 min 0 min 39 W/m 0,0 km/h (0 Bft) 100,00 %
02.01.2021 11:04 2,2 C 2,2 C 1,6 C 94 % 1015,1 hPa 0,0 l/m 0 min 0 min 39 W/m 0,0 km/h (0 Bft) 100,00 %
02.01.2021 11:06 2,2 C 2,2 C 1,6 C 94 % 1015,1 hPa 0,0 l/m 0 min 0 min 44 W/m 0,0 km/h (0 Bft) 100,00 %
02.01.2021 11:08 2,2 C 2,2 C 1,6 C 94 % 1015,1 hPa 0,0 l/m 0 min 0 min 49 W/m 0,0 km/h (0 Bft) 97,87 %
02.01.2021 11:10 2,2 C 2,2 C 1,6 C 95 % 1015,2 hPa 0,0 l/m 0 min 0 min 55 W/m 0,0 km/h (0 Bft) 100,00 %
02.01.2021 11:12 2,2 C 2,2 C 2,2 C 95 % 1015,1 hPa 0,0 l/m 0 min 0 min 56 W/m 0,0 km/h (0 Bft) 97,83 %
02.01.2021 11:14 2,3 C 2,2 C 2,2 C 95 % 1015,1 hPa 0,0 l/m 0 min 0 min 55 W/m 0,0 km/h (0 Bft) 100,00 %
02.01.2021 11:16 2,3 C 2,2 C 2,2 C 95 % 1015,1 hPa 0,0 l/m 0 min 0 min 53 W/m 0,0 km/h (0 Bft) 100,00 %
02.01.2021 11:18 2,3 C 2,2 C 2,2 C 95 % 1015,1 hPa 0,0 l/m 0 min 0 min 53 W/m 3,2 km/h (1 Bft) 100,00 %
02.01.2021 11:20 2,3 C 2,2 C 2,2 C 95 % 1015,2 hPa 0,0 l/m 0 min 0 min 51 W/m 0,0 km/h (0 Bft) 100,00 %
02.01.2021 11:22 2,3 C 2,2 C 2,2 C 95 % 1015,1 hPa 0,0 l/m 0 min 0 min 50 W/m 0,0 km/h (0 Bft) 100,00 %
02.01.2021 11:24 2,3 C 2,2 C 2,2 C 95 % 1015,1 hPa 0,0 l/m 0 min 0 min 57 W/m 0,0 km/h (0 Bft) 100,00 %
02.01.2021 11:26 2,3 C 2,2 C 2,2 C 95 % 1015,2 hPa 0,0 l/m 0 min 0 min 57 W/m 0,0 km/h (0 Bft) 100,00 %
02.01.2021 11:28 2,4 C 2,2 C 2,2 C 95 % 1015,1 hPa 0,0 l/m 0 min 0 min 56 W/m 0,0 km/h (0 Bft) 100,00 %
02.01.2021 11:30 2,4 C 2,2 C 2,2 C 95 % 1015,1 hPa 0,0 l/m 0 min 0 min 59 W/m 0,0 km/h (0 Bft) 100,00 %
02.01.2021 11:32 2,4 C 2,2 C 2,2 C 94 % 1015,1 hPa 0,0 l/m 0 min 0 min 58 W/m 0,0 km/h (0 Bft) 96,30 %
02.01.2021 11:34 2,4 C 2,2 C 2,2 C 94 % 1015,1 hPa 0,0 l/m 0 min 0 min 55 W/m 0,0 km/h (0 Bft) 100,00 %
02.01.2021 11:36 2,4 C 2,2 C 2,2 C 94 % 1015,1 hPa 0,0 l/m 0 min 0 min 45 W/m 0,0 km/h (0 Bft) 100,00 %
02.01.2021 11:38 2,4 C 2,2 C 2,2 C 94 % 1015,1 hPa 0,0 l/m 0 min 0 min 40 W/m 0,0 km/h (0 Bft) 100,00 %
02.01.2021 11:40 2,4 C 2,2 C 2,2 C 94 % 1015,1 hPa 0,0 l/m 0 min 0 min 39 W/m 0,0 km/h (0 Bft) 100,00 %
02.01.2021 11:42 2,4 C 2,2 C 1,6 C 94 % 1015,0 hPa 0,0 l/m 0 min 0 min 39 W/m 3,2 km/h (1 Bft) 100,00 %
02.01.2021 11:44 2,4 C 2,2 C 2,2 C 94 % 1015,1 hPa 0,0 l/m 0 min 0 min 37 W/m 0,0 km/h (0 Bft) 100,00 %
02.01.2021 11:46 2,4 C 2,2 C 2,2 C 94 % 1015,1 hPa 0,0 l/m 0 min 0 min 38 W/m 0,0 km/h (0 Bft) 97,87 %
02.01.2021 11:48 2,4 C 2,2 C 2,2 C 94 % 1015,1 hPa 0,0 l/m 0 min 0 min 43 W/m 0,0 km/h (0 Bft) 97,83 %
02.01.2021 11:50 2,4 C 2,2 C 2,2 C 94 % 1015,0 hPa 0,0 l/m 0 min 0 min 47 W/m 3,2 km/h (1 Bft) 93,62 %
02.01.2021 11:52 2,4 C 2,2 C 2,2 C 94 % 1015,0 hPa 0,0 l/m 0 min 0 min 52 W/m 0,0 km/h (0 Bft) 95,74 %
02.01.2021 11:54 2,4 C 2,2 C 2,2 C 94 % 1015,0 hPa 0,0 l/m 0 min 0 min 53 W/m 0,0 km/h (0 Bft) 97,87 %
02.01.2021 11:56 2,5 C 2,2 C 2,2 C 94 % 1014,9 hPa 0,0 l/m 0 min 0 min 54 W/m 6,4 km/h (2 Bft) 97,87 %
02.01.2021 11:58 2,5 C 2,2 C 2,2 C 94 % 1014,9 hPa 0,0 l/m 0 min 0 min 54 W/m 0,0 km/h (0 Bft) 97,83 %
02.01.2021 12:00 2,5 C 2,2 C 2,2 C 94 % 1014,9 hPa 0,0 l/m 0 min 0 min 56 W/m 0,0 km/h (0 Bft) 98,18 %
02.01.2021 12:02 2,5 C 2,2 C 2,2 C 94 % 1014,9 hPa 0,0 l/m 0 min 0 min 56 W/m 0,0 km/h (0 Bft) 95,65 %
02.01.2021 12:04 2,5 C 2,2 C 2,2 C 94 % 1014,8 hPa 0,0 l/m 0 min 0 min 55 W/m 0,0 km/h (0 Bft) 97,87 %
02.01.2021 12:08 2,5 C 2,2 C 2,2 C 94 % 1014,8 hPa 0,0 l/m 0 min 0 min 53 W/m 0,0 km/h (0 Bft) 95,88 %
02.01.2021 12:10 2,5 C 2,2 C 2,2 C 94 % 1014,8 hPa 0,0 l/m 0 min 0 min 64 W/m 0,0 km/h (0 Bft) 97,87 %
02.01.2021 12:12 2,5 C 2,8 C 2,2 C 94 % 1014,7 hPa 0,0 l/m 0 min 0 min 70 W/m 0,0 km/h (0 Bft) 94,44 %
02.01.2021 12:14 2,5 C 2,8 C 2,2 C 94 % 1014,7 hPa 0,0 l/m 0 min 0 min 82 W/m 0,0 km/h (0 Bft) 95,74 %
02.01.2021 12:16 2,5 C 2,8 C 2,7 C 94 % 1014,7 hPa 0,0 l/m 0 min 0 min 103 W/m 0,0 km/h (0 Bft) 97,87 %
02.01.2021 12:18 2,5 C 2,8 C 2,7 C 94 % 1014,6 hPa 0,0 l/m 0 min 0 min 119 W/m 0,0 km/h (0 Bft) 95,74 %
02.01.2021 12:20 2,6 C 2,8 C 2,7 C 94 % 1014,6 hPa 0,0 l/m 0 min 0 min 118 W/m 0,0 km/h (0 Bft) 97,87 %
02.01.2021 12:22 2,6 C 2,8 C 2,7 C 94 % 1014,6 hPa 0,0 l/m 0 min 0 min 103 W/m 0,0 km/h (0 Bft) 97,83 %
02.01.2021 12:24 2,6 C 3,3 C 2,7 C 94 % 1014,5 hPa 0,0 l/m 0 min 0 min 105 W/m 3,2 km/h (1 Bft) 95,74 %
02.01.2021 12:26 2,6 C 3,3 C 2,7 C 94 % 1014,5 hPa 0,0 l/m 0 min 0 min 120 W/m 0,0 km/h (0 Bft) 95,74 %
02.01.2021 12:28 2,7 C 3,3 C 3,3 C 94 % 1014,5 hPa 0,0 l/m 0 min 0 min 147 W/m 0,0 km/h (0 Bft) 95,74 %
02.01.2021 12:30 2,7 C 3,3 C 3,3 C 94 % 1014,4 hPa 0,0 l/m 2 min 0 min 167 W/m 0,0 km/h (0 Bft) 100,00 %
02.01.2021 12:32 2,8 C 3,9 C 3,3 C 94 % 1014,4 hPa 0,0 l/m 2 min 0 min 169 W/m 0,0 km/h (0 Bft) 98,15 %
02.01.2021 12:34 2,8 C 3,9 C 3,3 C 94 % 1014,3 hPa 0,0 l/m 0 min 0 min 138 W/m 0,0 km/h (0 Bft) 97,87 %
02.01.2021 12:36 2,8 C 3,3 C 3,3 C 94 % 1014,3 hPa 0,0 l/m 0 min 0 min 119 W/m 3,2 km/h (1 Bft) 100,00 %
02.01.2021 12:38 2,9 C 3,3 C 3,3 C 94 % 1014,3 hPa 0,0 l/m 0 min 0 min 127 W/m 3,2 km/h (1 Bft) 95,74 %
02.01.2021 12:40 2,9 C 3,3 C 3,3 C 94 % 1014,3 hPa 0,0 l/m 0 min 0 min 87 W/m 3,2 km/h (1 Bft) 97,87 %
02.01.2021 12:42 2,9 C 2,8 C 2,7 C 94 % 1014,3 hPa 0,0 l/m 0 min 0 min 45 W/m 0,0 km/h (0 Bft) 100,00 %
02.01.2021 12:44 2,9 C 2,8 C 2,7 C 94 % 1014,3 hPa 0,0 l/m 0 min 0 min 39 W/m 0,0 km/h (0 Bft) 97,87 %
02.01.2021 12:46 2,9 C 2,8 C 2,7 C 94 % 1014,3 hPa 0,0 l/m 0 min 0 min 51 W/m 0,0 km/h (0 Bft) 100,00 %
02.01.2021 12:48 2,9 C 3,3 C 2,7 C 94 % 1014,3 hPa 0,0 l/m 0 min 0 min 69 W/m 0,0 km/h (0 Bft) 97,83 %
02.01.2021 12:50 2,9 C 2,8 C 2,7 C 93 % 1014,3 hPa 0,0 l/m 0 min 0 min 82 W/m 0,0 km/h (0 Bft) 97,87 %
02.01.2021 12:52 3,0 C 3,3 C 2,7 C 93 % 1014,3 hPa 0,0 l/m 0 min 0 min 85 W/m 0,0 km/h (0 Bft) 97,87 %
02.01.2021 12:54 3,0 C 2,8 C 2,7 C 93 % 1014,2 hPa 0,0 l/m 0 min 0 min 88 W/m 0,0 km/h (0 Bft) 97,87 %
02.01.2021 12:56 3,0 C 2,8 C 2,7 C 93 % 1014,2 hPa 0,0 l/m 0 min 0 min 100 W/m 0,0 km/h (0 Bft) 95,74 %
02.01.2021 12:58 3,0 C 2,8 C 2,7 C 93 % 1014,2 hPa 0,0 l/m 0 min 0 min 107 W/m 0,0 km/h (0 Bft) 97,83 %
02.01.2021 13:00 3,0 C 3,3 C 2,7 C 93 % 1014,2 hPa 0,0 l/m 0 min 0 min 103 W/m 0,0 km/h (0 Bft) 97,30 %
02.01.2021 13:02 3,0 C 3,3 C 2,7 C 93 % 1014,2 hPa 0,0 l/m 0 min 0 min 101 W/m 0,0 km/h (0 Bft) 97,87 %
02.01.2021 13:04 3,0 C 3,3 C 2,7 C 93 % 1014,3 hPa 0,0 l/m 0 min 0 min 84 W/m 3,2 km/h (1 Bft) 97,87 %
02.01.2021 13:06 3,0 C 3,3 C 2,7 C 93 % 1014,2 hPa 0,0 l/m 0 min 0 min 69 W/m 0,0 km/h (0 Bft) 97,87 %
02.01.2021 13:08 3,0 C 3,3 C 2,7 C 93 % 1014,2 hPa 0,0 l/m 0 min 0 min 61 W/m 0,0 km/h (0 Bft) 95,65 %
02.01.2021 13:10 3,0 C 3,3 C 2,7 C 93 % 1014,2 hPa 0,0 l/m 0 min 0 min 56 W/m 0,0 km/h (0 Bft) 97,87 %
02.01.2021 13:12 3,0 C 2,8 C 2,7 C 93 % 1014,2 hPa 0,0 l/m 0 min 0 min 56 W/m 3,2 km/h (1 Bft) 96,30 %
02.01.2021 13:14 3,0 C 2,8 C 2,7 C 93 % 1014,1 hPa 0,0 l/m 0 min 0 min 49 W/m 0,0 km/h (0 Bft) 95,74 %
02.01.2021 13:16 3,1 C 2,8 C 2,7 C 93 % 1014,1 hPa 0,0 l/m 0 min 0 min 46 W/m 0,0 km/h (0 Bft) 95,74 %
02.01.2021 13:18 3,1 C 2,8 C 2,7 C 93 % 1014,1 hPa 0,0 l/m 0 min 0 min 46 W/m 0,0 km/h (0 Bft) 97,87 %
02.01.2021 13:20 3,1 C 2,8 C 2,7 C 93 % 1014,1 hPa 0,0 l/m 0 min 0 min 50 W/m 0,0 km/h (0 Bft) 96,00 %
02.01.2021 13:22 3,1 C 2,8 C 2,7 C 93 % 1014,1 hPa 0,0 l/m 0 min 0 min 55 W/m 0,0 km/h (0 Bft) 97,83 %
02.01.2021 13:24 3,1 C 2,8 C 2,7 C 93 % 1014,1 hPa 0,0 l/m 0 min 0 min 54 W/m 0,0 km/h (0 Bft) 97,87 %
02.01.2021 13:26 3,1 C 2,8 C 2,7 C 93 % 1014,1 hPa 0,0 l/m 0 min 0 min 53 W/m 0,0 km/h (0 Bft) 97,87 %
02.01.2021 13:28 3,1 C 2,8 C 2,7 C 93 % 1014,0 hPa 0,0 l/m 0 min 0 min 55 W/m 0,0 km/h (0 Bft) 97,30 %
02.01.2021 13:30 3,0 C 2,8 C 2,2 C 93 % 1014,0 hPa 0,0 l/m 0 min 0 min 58 W/m 0,0 km/h (0 Bft) 95,74 %
02.01.2021 13:32 3,0 C 2,8 C 2,7 C 93 % 1014,0 hPa 0,0 l/m 0 min 0 min 58 W/m 0,0 km/h (0 Bft) 97,83 %
02.01.2021 13:34 3,0 C 2,8 C 2,7 C 93 % 1014,0 hPa 0,0 l/m 0 min 0 min 53 W/m 3,2 km/h (1 Bft) 97,87 %
02.01.2021 13:36 3,0 C 2,8 C 2,7 C 93 % 1014,0 hPa 0,0 l/m 0 min 0 min 53 W/m 0,0 km/h (0 Bft) 97,87 %
02.01.2021 13:38 3,1 C 2,8 C 2,7 C 93 % 1014,0 hPa 0,0 l/m 0 min 0 min 55 W/m 0,0 km/h (0 Bft) 97,87 %
02.01.2021 13:40 3,1 C 2,8 C 2,7 C 93 % 1014,0 hPa 0,0 l/m 0 min 0 min 59 W/m 0,0 km/h (0 Bft) 100,00 %
02.01.2021 13:42 3,1 C 2,8 C 2,7 C 93 % 1014,0 hPa 0,0 l/m 0 min 0 min 62 W/m 0,0 km/h (0 Bft) 100,00 %
02.01.2021 13:44 3,1 C 2,8 C 2,7 C 93 % 1013,9 hPa 0,0 l/m 0 min 0 min 62 W/m 0,0 km/h (0 Bft) 97,83 %
02.01.2021 13:46 3,1 C 2,8 C 2,7 C 93 % 1014,0 hPa 0,0 l/m 0 min 0 min 66 W/m 0,0 km/h (0 Bft) 100,00 %
02.01.2021 13:48 3,1 C 2,8 C 2,7 C 93 % 1013,9 hPa 0,0 l/m 0 min 0 min 72 W/m 0,0 km/h (0 Bft) 100,00 %
02.01.2021 13:50 3,1 C 2,8 C 2,7 C 93 % 1013,9 hPa 0,0 l/m 0 min 0 min 69 W/m 0,0 km/h (0 Bft) 100,00 %
02.01.2021 13:52 3,1 C 2,8 C 2,7 C 93 % 1013,9 hPa 0,0 l/m 0 min 0 min 65 W/m 0,0 km/h (0 Bft) 100,00 %
02.01.2021 13:54 3,1 C 3,3 C 2,7 C 93 % 1013,9 hPa 0,0 l/m 0 min 0 min 63 W/m 0,0 km/h (0 Bft) 100,00 %
02.01.2021 13:56 3,1 C 3,3 C 2,7 C 93 % 1013,8 hPa 0,0 l/m 0 min 0 min 61 W/m 0,0 km/h (0 Bft) 100,00 %
02.01.2021 13:58 3,1 C 3,3 C 2,7 C 93 % 1013,8 hPa 0,0 l/m 0 min 0 min 58 W/m 0,0 km/h (0 Bft) 100,00 %
02.01.2021 14:00 3,1 C 2,8 C 2,7 C 93 % 1013,8 hPa 0,0 l/m 0 min 0 min 60 W/m 0,0 km/h (0 Bft) 100,00 %
02.01.2021 14:02 3,1 C 2,8 C 2,7 C 93 % 1013,9 hPa 0,0 l/m 0 min 0 min 55 W/m 0,0 km/h (0 Bft) 95,74 %
02.01.2021 14:04 3,1 C 2,8 C 2,7 C 93 % 1013,9 hPa 0,0 l/m 0 min 0 min 49 W/m 0,0 km/h (0 Bft) 100,00 %
02.01.2021 14:06 3,1 C 2,8 C 2,7 C 93 % 1013,8 hPa 0,0 l/m 0 min 0 min 45 W/m 0,0 km/h (0 Bft) 100,00 %
02.01.2021 14:08 3,1 C 2,8 C 2,7 C 93 % 1013,9 hPa 0,0 l/m 0 min 0 min 42 W/m 3,2 km/h (1 Bft) 98,18 %
02.01.2021 14:10 3,1 C 2,8 C 2,7 C 93 % 1013,9 hPa 0,0 l/m 0 min 0 min 42 W/m 0,0 km/h (0 Bft) 100,00 %
02.01.2021 14:12 3,2 C 2,8 C 2,7 C 93 % 1013,9 hPa 0,0 l/m 0 min 0 min 42 W/m 0,0 km/h (0 Bft) 100,00 %
02.01.2021 14:14 3,2 C 2,8 C 2,7 C 93 % 1013,9 hPa 0,0 l/m 0 min 0 min 47 W/m 0,0 km/h (0 Bft) 100,00 %
02.01.2021 14:16 3,2 C 2,8 C 2,2 C 93 % 1013,9 hPa 0,0 l/m 0 min 0 min 48 W/m 3,2 km/h (1 Bft) 100,00 %
02.01.2021 14:18 3,2 C 2,8 C 2,7 C 93 % 1013,9 hPa 0,0 l/m 0 min 0 min 44 W/m 0,0 km/h (0 Bft) 100,00 %
02.01.2021 14:20 3,2 C 2,8 C 2,7 C 93 % 1013,9 hPa 0,0 l/m 0 min 0 min 45 W/m 0,0 km/h (0 Bft) 100,00 %
02.01.2021 14:22 3,2 C 2,8 C 2,2 C 93 % 1013,9 hPa 0,0 l/m 0 min 0 min 42 W/m 0,0 km/h (0 Bft) 97,30 %
02.01.2021 14:24 3,2 C 2,8 C 2,2 C 93 % 1013,9 hPa 0,0 l/m 0 min 0 min 39 W/m 0,0 km/h (0 Bft) 97,87 %
02.01.2021 14:26 3,2 C 2,8 C 2,2 C 93 % 1013,9 hPa 0,0 l/m 0 min 0 min 40 W/m 0,0 km/h (0 Bft) 97,87 %
02.01.2021 14:28 3,2 C 2,8 C 2,2 C 93 % 1013,9 hPa 0,0 l/m 0 min 0 min 41 W/m 0,0 km/h (0 Bft) 95,74 %
02.01.2021 14:30 3,1 C 2,8 C 2,2 C 93 % 1013,8 hPa 0,0 l/m 0 min 0 min 42 W/m 0,0 km/h (0 Bft) 97,83 %
02.01.2021 14:32 3,2 C 2,8 C 2,2 C 93 % 1013,9 hPa 0,0 l/m 0 min 0 min 42 W/m 0,0 km/h (0 Bft) 96,30 %
02.01.2021 14:34 3,1 C 2,8 C 2,2 C 93 % 1013,8 hPa 0,0 l/m 0 min 0 min 39 W/m 0,0 km/h (0 Bft) 97,83 %
02.01.2021 14:36 3,1 C 2,8 C 2,2 C 93 % 1013,7 hPa 0,0 l/m 0 min 0 min 34 W/m 0,0 km/h (0 Bft) 95,74 %
02.01.2021 14:38 3,1 C 2,8 C 2,2 C 93 % 1013,8 hPa 0,0 l/m 0 min 0 min 32 W/m 0,0 km/h (0 Bft) 97,87 %
02.01.2021 14:40 3,1 C 2,8 C 2,2 C 93 % 1013,8 hPa 0,0 l/m 0 min 0 min 29 W/m 0,0 km/h (0 Bft) 96,00 %
02.01.2021 14:42 3,1 C 2,8 C 2,2 C 93 % 1013,8 hPa 0,0 l/m 0 min 0 min 28 W/m 0,0 km/h (0 Bft) 95,74 %
02.01.2021 14:44 3,1 C 2,8 C 2,2 C 93 % 1013,9 hPa 0,0 l/m 0 min 0 min 27 W/m 0,0 km/h (0 Bft) 97,83 %
02.01.2021 14:46 3,1 C 2,8 C 2,2 C 93 % 1014,0 hPa 0,0 l/m 0 min 0 min 25 W/m 0,0 km/h (0 Bft) 97,87 %
02.01.2021 14:48 3,1 C 2,8 C 2,2 C 93 % 1014,0 hPa 0,0 l/m 0 min 0 min 23 W/m 0,0 km/h (0 Bft) 97,37 %
02.01.2021 14:50 3,1 C 2,8 C 2,2 C 93 % 1013,9 hPa 0,0 l/m 0 min 0 min 24 W/m 0,0 km/h (0 Bft) 95,74 %
02.01.2021 14:52 3,1 C 2,8 C 2,2 C 93 % 1013,9 hPa 0,0 l/m 0 min 0 min 26 W/m 0,0 km/h (0 Bft) 97,87 %
02.01.2021 14:54 3,1 C 2,8 C 2,2 C 93 % 1013,9 hPa 0,0 l/m 0 min 0 min 31 W/m 0,0 km/h (0 Bft) 97,83 %
02.01.2021 14:56 3,1 C 2,8 C 2,2 C 93 % 1013,9 hPa 0,0 l/m 0 min 0 min 33 W/m 0,0 km/h (0 Bft) 95,74 %
02.01.2021 14:58 3,1 C 2,8 C 2,2 C 93 % 1013,9 hPa 0,0 l/m 0 min 0 min 31 W/m 0,0 km/h (0 Bft) 94,34 %
02.01.2021 15:00 3,2 C 2,8 C 2,2 C 93 % 1013,9 hPa 0,0 l/m 0 min 0 min 30 W/m 0,0 km/h (0 Bft) 93,62 %
02.01.2021 15:02 3,1 C 2,8 C 2,2 C 93 % 1013,9 hPa 0,0 l/m 0 min 0 min 30 W/m 0,0 km/h (0 Bft) 85,11 %
02.01.2021 15:04 3,2 C 2,8 C 2,2 C 93 % 1013,9 hPa 0,0 l/m 0 min 0 min 30 W/m 3,2 km/h (1 Bft) 88,37 %
02.01.2021 15:06 3,2 C 2,8 C 2,2 C 93 % 1013,9 hPa 0,0 l/m 0 min 0 min 29 W/m 0,0 km/h (0 Bft) 95,74 %
02.01.2021 15:08 3,1 C 2,8 C 2,2 C 93 % 1013,9 hPa 0,0 l/m 0 min 0 min 28 W/m 0,0 km/h (0 Bft) 93,62 %
02.01.2021 15:10 3,1 C 2,8 C 2,2 C 93 % 1013,9 hPa 0,0 l/m 0 min 0 min 28 W/m 0,0 km/h (0 Bft) 93,62 %
02.01.2021 15:12 3,1 C 2,8 C 2,2 C 93 % 1013,9 hPa 0,0 l/m 0 min 0 min 27 W/m 3,2 km/h (1 Bft) 96,23 %
02.01.2021 15:14 3,1 C 2,8 C 2,2 C 93 % 1014,0 hPa 0,0 l/m 0 min 0 min 26 W/m 0,0 km/h (0 Bft) 100,00 %
02.01.2021 15:16 3,1 C 2,8 C 2,2 C 93 % 1013,9 hPa 0,0 l/m 0 min 0 min 25 W/m 0,0 km/h (0 Bft) 97,87 %
02.01.2021 15:18 3,1 C 2,8 C 2,2 C 93 % 1014,0 hPa 0,0 l/m 0 min 0 min 25 W/m 0,0 km/h (0 Bft) 95,65 %
02.01.2021 15:20 3,1 C 2,8 C 2,2 C 93 % 1014,0 hPa 0,0 l/m 0 min 0 min 25 W/m 0,0 km/h (0 Bft) 100,00 %
02.01.2021 15:22 3,1 C 2,8 C 2,2 C 93 % 1014,0 hPa 0,0 l/m 0 min 0 min 24 W/m 0,0 km/h (0 Bft) 97,87 %
02.01.2021 15:24 3,1 C 2,8 C 2,2 C 93 % 1014,0 hPa 0,0 l/m 0 min 0 min 23 W/m 0,0 km/h (0 Bft) 97,87 %
02.01.2021 15:26 3,1 C 2,8 C 2,2 C 93 % 1014,0 hPa 0,0 l/m 0 min 0 min 23 W/m 0,0 km/h (0 Bft) 95,74 %
02.01.2021 15:28 3,1 C 2,8 C 2,2 C 93 % 1014,0 hPa 0,0 l/m 0 min 0 min 21 W/m 0,0 km/h (0 Bft) 97,87 %
02.01.2021 15:30 3,1 C 2,8 C 2,2 C 93 % 1014,0 hPa 0,0 l/m 0 min 0 min 18 W/m 0,0 km/h (0 Bft) 97,37 %
02.01.2021 15:32 3,1 C 2,8 C 2,2 C 93 % 1014,0 hPa 0,0 l/m 0 min 0 min 17 W/m 0,0 km/h (0 Bft) 100,00 %
02.01.2021 15:34 3,1 C 2,8 C 2,2 C 93 % 1014,0 hPa 0,0 l/m 0 min 0 min 14 W/m 0,0 km/h (0 Bft) 100,00 %
02.01.2021 15:36 3,1 C 2,8 C 2,2 C 93 % 1014,1 hPa 0,0 l/m 0 min 0 min 13 W/m 0,0 km/h (0 Bft) 100,00 %
02.01.2021 15:38 3,1 C 2,8 C 2,2 C 93 % 1014,1 hPa 0,0 l/m 0 min 0 min 12 W/m 0,0 km/h (0 Bft) 95,74 %
02.01.2021 15:40 3,1 C 2,8 C 2,2 C 93 % 1014,1 hPa 0,0 l/m 0 min 0 min 12 W/m 0,0 km/h (0 Bft) 97,96 %
02.01.2021 15:42 3,1 C 2,8 C 2,2 C 93 % 1014,1 hPa 0,0 l/m 0 min 0 min 11 W/m 0,0 km/h (0 Bft) 97,87 %
02.01.2021 15:44 3,1 C 2,8 C 2,2 C 93 % 1014,1 hPa 0,0 l/m 0 min 0 min 11 W/m 0,0 km/h (0 Bft) 97,87 %
02.01.2021 15:46 3,1 C 2,8 C 2,2 C 93 % 1014,1 hPa 0,0 l/m 0 min 0 min 11 W/m 0,0 km/h (0 Bft) 97,87 %
02.01.2021 15:48 3,1 C 2,8 C 2,2 C 93 % 1014,2 hPa 0,0 l/m 0 min 0 min 11 W/m 0,0 km/h (0 Bft) 98,11 %
02.01.2021 15:50 3,0 C 2,8 C 2,2 C 93 % 1014,2 hPa 0,0 l/m 0 min 0 min 11 W/m 0,0 km/h (0 Bft) 97,87 %
02.01.2021 15:52 3,0 C 2,8 C 2,2 C 93 % 1014,2 hPa 0,0 l/m 0 min 0 min 11 W/m 0,0 km/h (0 Bft) 97,87 %
02.01.2021 15:54 3,0 C 2,8 C 2,2 C 93 % 1014,2 hPa 0,0 l/m 0 min 0 min 9 W/m 0,0 km/h (0 Bft) 97,83 %
02.01.2021 15:56 3,0 C 2,8 C 2,2 C 94 % 1014,3 hPa 0,0 l/m 0 min 0 min 9 W/m 0,0 km/h (0 Bft) 97,87 %
02.01.2021 15:58 3,0 C 2,8 C 2,2 C 94 % 1014,3 hPa 0,0 l/m 0 min 0 min 9 W/m 0,0 km/h (0 Bft) 97,37 %
02.01.2021 16:00 3,0 C 2,8 C 2,2 C 94 % 1014,3 hPa 0,0 l/m 0 min 0 min 7 W/m 3,2 km/h (1 Bft) 97,87 %
02.01.2021 16:02 3,0 C 2,8 C 2,2 C 94 % 1014,3 hPa 0,0 l/m 0 min 0 min 7 W/m 0,0 km/h (0 Bft) 95,92 %
02.01.2021 16:04 3,0 C 2,8 C 2,2 C 94 % 1014,4 hPa 0,0 l/m 0 min 0 min 7 W/m 0,0 km/h (0 Bft) 97,87 %
02.01.2021 16:06 3,0 C 2,8 C 2,2 C 94 % 1014,4 hPa 0,0 l/m 0 min 0 min 5 W/m 0,0 km/h (0 Bft) 100,00 %
02.01.2021 16:08 3,0 C 2,8 C 2,2 C 94 % 1014,4 hPa 0,0 l/m 0 min 0 min 5 W/m 0,0 km/h (0 Bft) 95,74 %
02.01.2021 16:10 3,0 C 2,8 C 2,2 C 93 % 1014,4 hPa 0,0 l/m 0 min 0 min 5 W/m 0,0 km/h (0 Bft) 97,87 %
02.01.2021 16:12 3,0 C 2,8 C 2,2 C 94 % 1014,4 hPa 0,0 l/m 0 min 0 min 5 W/m 0,0 km/h (0 Bft) 97,87 %
02.01.2021 16:14 3,0 C 2,8 C 2,2 C 94 % 1014,4 hPa 0,0 l/m 0 min 0 min 5 W/m 0,0 km/h (0 Bft) 98,11 %
02.01.2021 16:16 3,0 C 2,8 C 2,2 C 94 % 1014,4 hPa 0,0 l/m 0 min 0 min 3 W/m 3,2 km/h (1 Bft) 97,83 %
02.01.2021 16:18 3,0 C 2,8 C 2,2 C 94 % 1014,4 hPa 0,0 l/m 0 min 0 min 0 W/m 0,0 km/h (0 Bft) 97,37 %
02.01.2021 16:20 3,0 C 2,8 C 2,2 C 94 % 1014,4 hPa 0,0 l/m 0 min 0 min 0 W/m 0,0 km/h (0 Bft) 98,00 %
02.01.2021 16:22 3,0 C 2,8 C 2,2 C 94 % 1014,4 hPa 0,0 l/m 0 min 0 min 0 W/m 0,0 km/h (0 Bft) 97,87 %
02.01.2021 16:24 3,0 C 2,8 C 2,2 C 94 % 1014,4 hPa 0,0 l/m 0 min 0 min 0 W/m 0,0 km/h (0 Bft) 98,11 %
02.01.2021 16:26 3,0 C 2,8 C 2,2 C 94 % 1014,4 hPa 0,0 l/m 0 min 0 min 0 W/m 0,0 km/h (0 Bft) 95,74 %
02.01.2021 16:28 3,0 C 2,8 C 2,2 C 94 % 1014,4 hPa 0,0 l/m 0 min 0 min 0 W/m 0,0 km/h (0 Bft) 100,00 %
02.01.2021 16:30 3,0 C 2,8 C 2,2 C 94 % 1014,4 hPa 0,0 l/m 0 min 0 min 0 W/m 3,2 km/h (1 Bft) 100,00 %
02.01.2021 16:32 3,0 C 2,8 C 2,2 C 94 % 1014,4 hPa 0,0 l/m 0 min 0 min 0 W/m 0,0 km/h (0 Bft) 100,00 %
02.01.2021 16:34 3,0 C 2,2 C 2,2 C 94 % 1014,4 hPa 0,0 l/m 0 min 0 min 0 W/m 0,0 km/h (0 Bft) 97,87 %
02.01.2021 16:36 3,0 C 2,8 C 2,2 C 94 % 1014,4 hPa 0,0 l/m 0 min 0 min 0 W/m 0,0 km/h (0 Bft) 97,83 %
02.01.2021 16:38 3,0 C 2,8 C 2,2 C 94 % 1014,4 hPa 0,0 l/m 0 min 0 min 0 W/m 0,0 km/h (0 Bft) 97,87 %
02.01.2021 16:40 3,0 C 2,2 C 2,2 C 94 % 1014,3 hPa 0,0 l/m 0 min 0 min 0 W/m 0,0 km/h (0 Bft) 98,11 %
02.01.2021 16:42 3,0 C 2,8 C 2,2 C 94 % 1014,3 hPa 0,0 l/m 0 min 0 min 0 W/m 0,0 km/h (0 Bft) 97,37 %
02.01.2021 16:44 3,0 C 2,2 C 2,2 C 94 % 1014,3 hPa 0,0 l/m 0 min 0 min 0 W/m 0,0 km/h (0 Bft) 98,00 %
02.01.2021 16:46 3,0 C 2,8 C 2,2 C 94 % 1014,3 hPa 0,0 l/m 0 min 0 min 0 W/m 0,0 km/h (0 Bft) 97,87 %
02.01.2021 16:48 3,0 C 2,2 C 2,2 C 94 % 1014,3 hPa 0,0 l/m 0 min 0 min 0 W/m 0,0 km/h (0 Bft) 98,11 %
02.01.2021 16:50 3,0 C 2,2 C 2,2 C 94 % 1014,3 hPa 0,0 l/m 0 min 0 min 0 W/m 0,0 km/h (0 Bft) 97,37 %
02.01.2021 16:52 3,0 C 2,8 C 2,2 C 94 % 1014,3 hPa 0,0 l/m 0 min 0 min 0 W/m 0,0 km/h (0 Bft) 97,87 %
02.01.2021 16:54 3,0 C 2,2 C 2,2 C 94 % 1014,3 hPa 0,0 l/m 0 min 0 min 0 W/m 3,2 km/h (1 Bft) 97,96 %
02.01.2021 16:56 3,0 C 2,2 C 2,2 C 94 % 1014,3 hPa 0,0 l/m 0 min 0 min 0 W/m 0,0 km/h (0 Bft) 97,87 %
02.01.2021 16:58 3,0 C 2,2 C 2,2 C 94 % 1014,3 hPa 0,0 l/m 0 min 0 min 0 W/m 0,0 km/h (0 Bft) 97,87 %
02.01.2021 17:00 3,0 C 2,2 C 2,2 C 94 % 1014,4 hPa 0,0 l/m 0 min 0 min 0 W/m 0,0 km/h (0 Bft) 95,65 %
02.01.2021 17:02 3,0 C 2,2 C 2,2 C 94 % 1014,4 hPa 0,0 l/m 0 min 0 min 0 W/m 0,0 km/h (0 Bft) 97,87 %
02.01.2021 17:04 3,0 C 2,2 C 2,2 C 94 % 1014,3 hPa 0,0 l/m 0 min 0 min 0 W/m 0,0 km/h (0 Bft) 97,87 %
02.01.2021 17:06 3,0 C 2,2 C 1,6 C 94 % 1014,3 hPa 0,0 l/m 0 min 0 min 0 W/m 0,0 km/h (0 Bft) 98,00 %
02.01.2021 17:08 3,0 C 2,2 C 2,2 C 94 % 1014,4 hPa 0,0 l/m 0 min 0 min 0 W/m 0,0 km/h (0 Bft) 97,87 %
02.01.2021 17:10 3,0 C 2,2 C 1,6 C 94 % 1014,4 hPa 0,0 l/m 0 min 0 min 0 W/m 0,0 km/h (0 Bft) 95,65 %
02.01.2021 17:12 3,0 C 2,2 C 1,6 C 94 % 1014,4 hPa 0,0 l/m 0 min 0 min 0 W/m 0,0 km/h (0 Bft) 95,74 %
02.01.2021 17:14 3,0 C 2,2 C 1,6 C 94 % 1014,4 hPa 0,0 l/m 0 min 0 min 0 W/m 0,0 km/h (0 Bft) 95,74 %
02.01.2021 17:16 2,9 C 2,2 C 1,6 C 94 % 1014,4 hPa 0,0 l/m 0 min 0 min 0 W/m 0,0 km/h (0 Bft) 95,74 %
02.01.2021 17:18 2,9 C 2,2 C 1,6 C 94 % 1014,4 hPa 0,0 l/m 0 min 0 min 0 W/m 0,0 km/h (0 Bft) 95,12 %
02.01.2021 17:20 2,9 C 2,2 C 1,6 C 94 % 1014,4 hPa 0,0 l/m 0 min 0 min 0 W/m 0,0 km/h (0 Bft) 95,74 %
02.01.2021 17:22 2,9 C 2,2 C 1,6 C 94 % 1014,4 hPa 0,0 l/m 0 min 0 min 0 W/m 0,0 km/h (0 Bft) 94,00 %
02.01.2021 17:24 2,9 C 2,2 C 1,6 C 94 % 1014,4 hPa 0,0 l/m 0 min 0 min 0 W/m 0,0 km/h (0 Bft) 95,74 %
02.01.2021 17:26 2,9 C 2,2 C 1,6 C 94 % 1014,5 hPa 0,0 l/m 0 min 0 min 0 W/m 0,0 km/h (0 Bft) 95,74 %
02.01.2021 17:28 2,9 C 2,2 C 1,6 C 94 % 1014,4 hPa 0,0 l/m 0 min 0 min 0 W/m 0,0 km/h (0 Bft) 95,65 %
02.01.2021 17:30 2,9 C 2,2 C 1,6 C 94 % 1014,4 hPa 0,0 l/m 0 min 0 min 0 W/m 0,0 km/h (0 Bft) 95,74 %
02.01.2021 17:32 2,9 C 2,2 C 1,6 C 95 % 1014,4 hPa 0,0 l/m 0 min 0 min 0 W/m 0,0 km/h (0 Bft) 94,00 %
02.01.2021 17:34 2,9 C 2,2 C 1,6 C 95 % 1014,4 hPa 0,0 l/m 0 min 0 min 0 W/m 0,0 km/h (0 Bft) 95,65 %
02.01.2021 17:36 2,9 C 2,2 C 1,6 C 95 % 1014,4 hPa 0,0 l/m 0 min 0 min 0 W/m 0,0 km/h (0 Bft) 95,74 %
02.01.2021 17:38 2,9 C 2,2 C 1,6 C 95 % 1014,4 hPa 0,0 l/m 0 min 0 min 0 W/m 0,0 km/h (0 Bft) 93,62 %
02.01.2021 17:40 2,9 C 2,2 C 1,6 C 95 % 1014,5 hPa 0,0 l/m 0 min 0 min 0 W/m 0,0 km/h (0 Bft) 95,74 %
02.01.2021 17:42 2,9 C 2,2 C 1,6 C 95 % 1014,5 hPa 0,0 l/m 0 min 0 min 0 W/m 0,0 km/h (0 Bft) 95,74 %
02.01.2021 17:44 2,9 C 2,2 C 1,6 C 95 % 1014,5 hPa 0,0 l/m 0 min 0 min 0 W/m 0,0 km/h (0 Bft) 95,12 %
02.01.2021 17:46 2,9 C 2,2 C 1,6 C 95 % 1014,5 hPa 0,0 l/m 0 min 0 min 0 W/m 0,0 km/h (0 Bft) 61,70 %
02.01.2021 17:48 2,9 C 2,2 C 1,6 C 94 % 1014,6 hPa 0,0 l/m 0 min 0 min 0 W/m 0,0 km/h (0 Bft) 86,36 %
02.01.2021 17:50 2,9 C 2,2 C 1,6 C 94 % 1014,5 hPa 0,0 l/m 0 min 0 min 0 W/m 0,0 km/h (0 Bft) 95,92 %
02.01.2021 17:52 2,9 C 2,2 C 1,6 C 94 % 1014,6 hPa 0,0 l/m 0 min 0 min 0 W/m 0,0 km/h (0 Bft) 95,74 %
02.01.2021 17:54 2,9 C 2,2 C 1,6 C 95 % 1014,6 hPa 0,0 l/m 0 min 0 min 0 W/m 0,0 km/h (0 Bft) 91,49 %
02.01.2021 17:56 2,9 C 2,2 C 1,6 C 95 % 1014,6 hPa 0,0 l/m 0 min 0 min 0 W/m 0,0 km/h (0 Bft) 100,00 %
02.01.2021 17:58 2,9 C 2,2 C 1,6 C 95 % 1014,6 hPa 0,0 l/m 0 min 0 min 0 W/m 0,0 km/h (0 Bft) 93,62 %
02.01.2021 18:00 2,9 C 2,2 C 1,6 C 95 % 1014,7 hPa 0,0 l/m 0 min 0 min 0 W/m 0,0 km/h (0 Bft) 94,44 %
02.01.2021 18:02 2,9 C 2,2 C 1,6 C 95 % 1014,6 hPa 0,0 l/m 0 min 0 min 0 W/m 0,0 km/h (0 Bft) 97,87 %
02.01.2021 18:04 2,9 C 2,2 C 1,6 C 95 % 1014,6 hPa 0,0 l/m 0 min 0 min 0 W/m 0,0 km/h (0 Bft) 97,83 %
02.01.2021 18:08 2,9 C 2,2 C 1,6 C 95 % 1014,6 hPa 0,0 l/m 0 min 0 min 0 W/m 0,0 km/h (0 Bft) 94,74 %
02.01.2021 18:10 2,9 C 2,2 C 1,6 C 95 % 1014,6 hPa 0,0 l/m 0 min 0 min 0 W/m 0,0 km/h (0 Bft) 98,00 %
02.01.2021 18:12 2,9 C 2,2 C 1,6 C 95 % 1014,6 hPa 0,0 l/m 0 min 0 min 0 W/m 0,0 km/h (0 Bft) 97,87 %
02.01.2021 18:14 2,9 C 2,2 C 1,6 C 95 % 1014,6 hPa 0,0 l/m 0 min 0 min 0 W/m 0,0 km/h (0 Bft) 93,62 %
02.01.2021 18:16 2,9 C 2,2 C 1,6 C 95 % 1014,6 hPa 0,0 l/m 0 min 0 min 0 W/m 0,0 km/h (0 Bft) 93,62 %
02.01.2021 18:18 2,9 C 2,2 C 1,6 C 95 % 1014,6 hPa 0,0 l/m 0 min 0 min 0 W/m 0,0 km/h (0 Bft) 97,87 %
02.01.2021 18:20 2,9 C 2,2 C 1,6 C 95 % 1014,6 hPa 0,0 l/m 0 min 0 min 0 W/m 0,0 km/h (0 Bft) 97,83 %
02.01.2021 18:22 2,9 C 2,2 C 1,6 C 95 % 1014,7 hPa 0,0 l/m 0 min 0 min 0 W/m 0,0 km/h (0 Bft) 93,62 %
02.01.2021 18:24 2,9 C 2,2 C 1,6 C 95 % 1014,7 hPa 0,0 l/m 0 min 0 min 0 W/m 0,0 km/h (0 Bft) 95,74 %
02.01.2021 18:26 2,9 C 2,2 C 1,6 C 95 % 1014,7 hPa 0,0 l/m 0 min 0 min 0 W/m 0,0 km/h (0 Bft) 93,62 %
02.01.2021 18:28 2,9 C 2,2 C 1,6 C 95 % 1014,7 hPa 0,0 l/m 0 min 0 min 0 W/m 0,0 km/h (0 Bft) 97,14 %
02.01.2021 18:30 2,9 C 2,2 C 1,6 C 95 % 1014,8 hPa 0,0 l/m 0 min 0 min 0 W/m 0,0 km/h (0 Bft) 94,44 %
02.01.2021 18:32 2,9 C 2,2 C 1,6 C 95 % 1014,7 hPa 0,0 l/m 0 min 0 min 0 W/m 0,0 km/h (0 Bft) 95,83 %
02.01.2021 18:34 2,9 C 2,2 C 1,6 C 95 % 1014,7 hPa 0,0 l/m 0 min 0 min 0 W/m 0,0 km/h (0 Bft) 95,74 %
02.01.2021 18:36 2,9 C 2,2 C 1,6 C 95 % 1014,7 hPa 0,0 l/m 0 min 0 min 0 W/m 0,0 km/h (0 Bft) 93,62 %
02.01.2021 18:38 2,9 C 2,2 C 1,6 C 95 % 1014,7 hPa 0,0 l/m 0 min 0 min 0 W/m 0,0 km/h (0 Bft) 93,88 %
02.01.2021 18:40 2,9 C 2,2 C 1,6 C 95 % 1014,6 hPa 0,0 l/m 0 min 0 min 0 W/m 0,0 km/h (0 Bft) 95,74 %
02.01.2021 18:42 2,9 C 2,2 C 1,6 C 95 % 1014,7 hPa 0,0 l/m 0 min 0 min 0 W/m 0,0 km/h (0 Bft) 70,21 %
02.01.2021 18:44 2,9 C 2,2 C 1,6 C 95 % 1014,7 hPa 0,0 l/m 0 min 0 min 0 W/m 0,0 km/h (0 Bft) 80,43 %
02.01.2021 18:46 2,9 C 2,2 C 1,6 C 95 % 1014,7 hPa 0,0 l/m 0 min 0 min 0 W/m 0,0 km/h (0 Bft) 95,74 %
02.01.2021 18:48 2,9 C 2,2 C 1,6 C 95 % 1014,7 hPa 0,0 l/m 0 min 0 min 0 W/m 0,0 km/h (0 Bft) 94,29 %
02.01.2021 18:50 2,9 C 2,2 C 1,6 C 95 % 1014,7 hPa 0,0 l/m 0 min 0 min 0 W/m 0,0 km/h (0 Bft) 95,74 %
02.01.2021 18:52 2,9 C 2,2 C 1,6 C 95 % 1014,6 hPa 0,0 l/m 0 min 0 min 0 W/m 0,0 km/h (0 Bft) 95,74 %
02.01.2021 18:54 2,9 C 2,2 C 1,6 C 95 % 1014,6 hPa 0,0 l/m 0 min 0 min 0 W/m 0,0 km/h (0 Bft) 95,74 %
02.01.2021 18:56 2,9 C 2,2 C 1,6 C 95 % 1014,6 hPa 0,0 l/m 0 min 0 min 0 W/m 0,0 km/h (0 Bft) 93,62 %
02.01.2021 18:58 2,9 C 2,2 C 1,6 C 95 % 1014,5 hPa 0,0 l/m 0 min 0 min 0 W/m 0,0 km/h (0 Bft) 96,43 %
02.01.2021 19:00 2,9 C 2,2 C 1,6 C 95 % 1014,5 hPa 0,0 l/m 0 min 0 min 0 W/m 0,0 km/h (0 Bft) 95,65 %
02.01.2021 19:02 2,9 C 2,2 C 1,6 C 95 % 1014,5 hPa 0,0 l/m 0 min 0 min 0 W/m 0,0 km/h (0 Bft) 96,00 %
02.01.2021 19:04 2,9 C 2,2 C 1,6 C 95 % 1014,5 hPa 0,0 l/m 0 min 0 min 0 W/m 0,0 km/h (0 Bft) 95,74 %
02.01.2021 19:06 2,9 C 2,2 C 1,6 C 95 % 1014,6 hPa 0,0 l/m 0 min 0 min 0 W/m 0,0 km/h (0 Bft) 95,65 %
02.01.2021 19:08 2,9 C 2,2 C 1,6 C 95 % 1014,6 hPa 0,0 l/m 0 min 0 min 0 W/m 0,0 km/h (0 Bft) 97,62 %
02.01.2021 19:10 2,9 C 2,2 C 1,6 C 95 % 1014,6 hPa 0,0 l/m 0 min 0 min 0 W/m 0,0 km/h (0 Bft) 97,87 %
02.01.2021 19:12 2,9 C 2,2 C 1,6 C 95 % 1014,6 hPa 0,0 l/m 0 min 0 min 0 W/m 0,0 km/h (0 Bft) 95,65 %
02.01.2021 19:14 2,9 C 2,2 C 1,6 C 95 % 1014,6 hPa 0,0 l/m 0 min 0 min 0 W/m 0,0 km/h (0 Bft) 96,00 %
02.01.2021 19:16 2,9 C 2,2 C 1,6 C 95 % 1014,6 hPa 0,0 l/m 0 min 0 min 0 W/m 0,0 km/h (0 Bft) 98,00 %
02.01.2021 19:18 2,9 C 2,2 C 1,6 C 95 % 1014,6 hPa 0,0 l/m 0 min 0 min 0 W/m 0,0 km/h (0 Bft) 95,65 %
02.01.2021 19:20 2,9 C 2,2 C 1,6 C 95 % 1014,6 hPa 0,0 l/m 0 min 0 min 0 W/m 0,0 km/h (0 Bft) 97,87 %
02.01.2021 19:22 2,9 C 2,2 C 1,6 C 95 % 1014,5 hPa 0,0 l/m 0 min 0 min 0 W/m 0,0 km/h (0 Bft) 97,87 %
02.01.2021 19:24 2,9 C 2,2 C 1,6 C 95 % 1014,6 hPa 0,0 l/m 0 min 0 min 0 W/m 0,0 km/h (0 Bft) 97,56 %
02.01.2021 19:26 2,9 C 2,2 C 1,6 C 95 % 1014,6 hPa 0,0 l/m 0 min 0 min 0 W/m 0,0 km/h (0 Bft) 97,87 %
02.01.2021 19:28 2,9 C 2,2 C 1,6 C 95 % 1014,6 hPa 0,0 l/m 0 min 0 min 0 W/m 0,0 km/h (0 Bft) 97,87 %
02.01.2021 19:30 2,9 C 2,2 C 1,6 C 95 % 1014,6 hPa 0,0 l/m 0 min 0 min 0 W/m 0,0 km/h (0 Bft) 93,62 %
02.01.2021 19:32 2,9 C 2,2 C 1,6 C 95 % 1014,6 hPa 0,0 l/m 0 min 0 min 0 W/m 0,0 km/h (0 Bft) 98,00 %
02.01.2021 19:34 2,9 C 2,2 C 1,6 C 95 % 1014,6 hPa 0,0 l/m 0 min 0 min 0 W/m 0,0 km/h (0 Bft) 97,96 %
02.01.2021 19:36 2,9 C 2,2 C 1,6 C 95 % 1014,6 hPa 0,0 l/m 0 min 0 min 0 W/m 0,0 km/h (0 Bft) 97,87 %
02.01.2021 19:38 2,8 C 2,2 C 1,6 C 95 % 1014,6 hPa 0,0 l/m 0 min 0 min 0 W/m 0,0 km/h (0 Bft) 97,56 %
02.01.2021 19:40 2,9 C 2,2 C 1,6 C 95 % 1014,6 hPa 0,0 l/m 0 min 0 min 0 W/m 0,0 km/h (0 Bft) 95,74 %
02.01.2021 19:42 2,9 C 2,2 C 1,6 C 95 % 1014,6 hPa 0,0 l/m 0 min 0 min 0 W/m 0,0 km/h (0 Bft) 95,74 %
02.01.2021 19:44 2,9 C 2,2 C 1,6 C 95 % 1014,6 hPa 0,0 l/m 0 min 0 min 0 W/m 0,0 km/h (0 Bft) 97,87 %
02.01.2021 19:46 2,8 C 2,2 C 1,6 C 95 % 1014,6 hPa 0,0 l/m 0 min 0 min 0 W/m 0,0 km/h (0 Bft) 97,87 %
02.01.2021 19:48 2,8 C 2,2 C 1,6 C 95 % 1014,6 hPa 0,0 l/m 0 min 0 min 0 W/m 0,0 km/h (0 Bft) 97,96 %
02.01.2021 19:50 2,8 C 2,2 C 1,6 C 95 % 1014,6 hPa 0,0 l/m 0 min 0 min 0 W/m 0,0 km/h (0 Bft) 97,87 %
02.01.2021 19:52 2,8 C 2,2 C 1,6 C 95 % 1014,6 hPa 0,0 l/m 0 min 0 min 0 W/m 0,0 km/h (0 Bft) 100,00 %
02.01.2021 19:54 2,8 C 2,2 C 1,6 C 95 % 1014,6 hPa 0,0 l/m 0 min 0 min 0 W/m 0,0 km/h (0 Bft) 100,00 %
02.01.2021 19:56 2,8 C 2,2 C 1,6 C 95 % 1014,6 hPa 0,0 l/m 0 min 0 min 0 W/m 0,0 km/h (0 Bft) 95,92 %
02.01.2021 19:58 2,8 C 2,2 C 1,6 C 95 % 1014,6 hPa 0,0 l/m 0 min 0 min 0 W/m 0,0 km/h (0 Bft) 100,00 %
02.01.2021 20:00 2,8 C 2,2 C 1,6 C 95 % 1014,6 hPa 0,0 l/m 0 min 0 min 0 W/m 0,0 km/h (0 Bft) 97,87 %
02.01.2021 20:02 2,8 C 2,2 C 1,6 C 95 % 1014,6 hPa 0,0 l/m 0 min 0 min 0 W/m 0,0 km/h (0 Bft) 100,00 %
02.01.2021 20:04 2,8 C 2,2 C 1,6 C 95 % 1014,6 hPa 0,0 l/m 0 min 0 min 0 W/m 0,0 km/h (0 Bft) 100,00 %
02.01.2021 20:06 2,8 C 2,2 C 1,6 C 95 % 1014,6 hPa 0,0 l/m 0 min 0 min 0 W/m 0,0 km/h (0 Bft) 97,87 %
02.01.2021 20:08 2,8 C 2,2 C 1,6 C 95 % 1014,6 hPa 0,0 l/m 0 min 0 min 0 W/m 0,0 km/h (0 Bft) 98,00 %
02.01.2021 20:10 2,8 C 2,2 C 1,6 C 95 % 1014,6 hPa 0,0 l/m 0 min 0 min 0 W/m 0,0 km/h (0 Bft) 95,65 %
02.01.2021 20:12 2,8 C 2,2 C 1,6 C 95 % 1014,6 hPa 0,0 l/m 0 min 0 min 0 W/m 0,0 km/h (0 Bft) 97,87 %
02.01.2021 20:14 2,8 C 2,2 C 1,6 C 95 % 1014,6 hPa 0,0 l/m 0 min 0 min 0 W/m 0,0 km/h (0 Bft) 96,00 %
02.01.2021 20:16 2,8 C 2,2 C 1,6 C 95 % 1014,6 hPa 0,0 l/m 0 min 0 min 0 W/m 0,0 km/h (0 Bft) 97,83 %
02.01.2021 20:18 2,7 C 2,2 C 1,6 C 95 % 1014,6 hPa 0,0 l/m 0 min 0 min 0 W/m 0,0 km/h (0 Bft) 95,74 %
02.01.2021 20:20 2,7 C 2,2 C 1,6 C 95 % 1014,6 hPa 0,0 l/m 0 min 0 min 0 W/m 0,0 km/h (0 Bft) 97,87 %
02.01.2021 20:22 2,7 C 2,2 C 1,6 C 95 % 1014,6 hPa 0,0 l/m 0 min 0 min 0 W/m 0,0 km/h (0 Bft) 97,14 %
02.01.2021 20:24 2,7 C 2,2 C 1,6 C 95 % 1014,6 hPa 0,0 l/m 0 min 0 min 0 W/m 0,0 km/h (0 Bft) 93,62 %
02.01.2021 20:26 2,7 C 2,2 C 1,6 C 95 % 1014,7 hPa 0,0 l/m 0 min 0 min 0 W/m 0,0 km/h (0 Bft) 97,87 %
02.01.2021 20:28 2,7 C 2,2 C 1,6 C 95 % 1014,7 hPa 0,0 l/m 0 min 0 min 0 W/m 0,0 km/h (0 Bft) 93,62 %
02.01.2021 20:30 2,7 C 2,2 C 1,6 C 95 % 1014,7 hPa 0,0 l/m 0 min 0 min 0 W/m 0,0 km/h (0 Bft) 95,65 %
02.01.2021 20:32 2,7 C 2,2 C 1,6 C 95 % 1014,7 hPa 0,0 l/m 0 min 0 min 0 W/m 0,0 km/h (0 Bft) 97,87 %
02.01.2021 20:34 2,7 C 2,2 C 1,6 C 95 % 1014,7 hPa 0,0 l/m 0 min 0 min 0 W/m 0,0 km/h (0 Bft) 95,74 %
02.01.2021 20:36 2,6 C 2,2 C 1,6 C 95 % 1014,7 hPa 0,0 l/m 0 min 0 min 0 W/m 0,0 km/h (0 Bft) 97,87 %
02.01.2021 20:38 2,6 C 2,2 C 1,6 C 95 % 1014,7 hPa 0,0 l/m 0 min 0 min 0 W/m 0,0 km/h (0 Bft) 95,74 %
02.01.2021 20:40 2,6 C 2,2 C 1,6 C 95 % 1014,7 hPa 0,0 l/m 0 min 0 min 0 W/m 0,0 km/h (0 Bft) 97,87 %
02.01.2021 20:42 2,6 C 2,2 C 1,6 C 95 % 1014,6 hPa 0,0 l/m 0 min 0 min 0 W/m 0,0 km/h (0 Bft) 97,83 %
02.01.2021 20:44 2,6 C 2,2 C 1,6 C 95 % 1014,6 hPa 0,0 l/m 0 min 0 min 0 W/m 0,0 km/h (0 Bft) 95,74 %
02.01.2021 20:46 2,6 C 2,2 C 1,6 C 95 % 1014,7 hPa 0,0 l/m 0 min 0 min 0 W/m 0,0 km/h (0 Bft) 97,87 %
02.01.2021 20:48 2,6 C 2,2 C 1,6 C 95 % 1014,7 hPa 0,0 l/m 0 min 0 min 0 W/m 0,0 km/h (0 Bft) 95,74 %
02.01.2021 20:50 2,6 C 2,2 C 1,6 C 95 % 1014,7 hPa 0,0 l/m 0 min 0 min 0 W/m 0,0 km/h (0 Bft) 97,87 %
02.01.2021 20:52 2,6 C 2,2 C 1,6 C 95 % 1014,7 hPa 0,0 l/m 0 min 0 min 0 W/m 0,0 km/h (0 Bft) 91,49 %
02.01.2021 20:54 2,6 C 2,2 C 1,6 C 95 % 1014,7 hPa 0,0 l/m 0 min 0 min 0 W/m 0,0 km/h (0 Bft) 97,83 %
02.01.2021 20:56 2,6 C 2,2 C 1,6 C 95 % 1014,7 hPa 0,0 l/m 0 min 0 min 0 W/m 0,0 km/h (0 Bft) 100,00 %
02.01.2021 20:58 2,6 C 2,2 C 1,6 C 95 % 1014,6 hPa 0,0 l/m 0 min 0 min 0 W/m 0,0 km/h (0 Bft) 95,74 %
02.01.2021 21:00 2,6 C 2,2 C 1,6 C 95 % 1014,6 hPa 0,0 l/m 0 min 0 min 0 W/m 0,0 km/h (0 Bft) 97,87 %
02.01.2021 21:02 2,6 C 2,2 C 1,6 C 95 % 1014,6 hPa 0,0 l/m 0 min 0 min 0 W/m 0,0 km/h (0 Bft) 95,74 %
02.01.2021 21:04 2,6 C 2,2 C 1,6 C 95 % 1014,6 hPa 0,0 l/m 0 min 0 min 0 W/m 0,0 km/h (0 Bft) 97,87 %
02.01.2021 21:06 2,6 C 2,2 C 1,6 C 95 % 1014,6 hPa 0,0 l/m 0 min 0 min 0 W/m 0,0 km/h (0 Bft) 97,83 %
02.01.2021 21:08 2,6 C 2,2 C 1,6 C 95 % 1014,6 hPa 0,0 l/m 0 min 0 min 0 W/m 0,0 km/h (0 Bft) 95,74 %
02.01.2021 21:10 2,6 C 2,2 C 1,6 C 95 % 1014,6 hPa 0,0 l/m 0 min 0 min 0 W/m 0,0 km/h (0 Bft) 97,87 %
02.01.2021 21:12 2,6 C 2,2 C 1,6 C 95 % 1014,6 hPa 0,0 l/m 0 min 0 min 0 W/m 0,0 km/h (0 Bft) 97,87 %
02.01.2021 21:14 2,6 C 2,2 C 1,6 C 95 % 1014,5 hPa 0,0 l/m 0 min 0 min 0 W/m 0,0 km/h (0 Bft) 95,74 %
02.01.2021 21:16 2,6 C 2,2 C 1,6 C 96 % 1014,6 hPa 0,0 l/m 0 min 0 min 0 W/m 0,0 km/h (0 Bft) 95,65 %
02.01.2021 21:18 2,6 C 2,2 C 1,6 C 96 % 1014,6 hPa 0,0 l/m 0 min 0 min 0 W/m 0,0 km/h (0 Bft) 97,87 %
02.01.2021 21:20 2,6 C 2,2 C 1,6 C 96 % 1014,6 hPa 0,0 l/m 0 min 0 min 0 W/m 0,0 km/h (0 Bft) 97,87 %
02.01.2021 21:22 2,6 C 2,2 C 1,6 C 96 % 1014,6 hPa 0,0 l/m 0 min 0 min 0 W/m 0,0 km/h (0 Bft) 97,87 %
02.01.2021 21:24 2,6 C 2,2 C 1,6 C 96 % 1014,5 hPa 0,0 l/m 0 min 0 min 0 W/m 0,0 km/h (0 Bft) 97,87 %
02.01.2021 21:26 2,6 C 2,2 C 1,6 C 96 % 1014,6 hPa 0,0 l/m 0 min 0 min 0 W/m 0,0 km/h (0 Bft) 97,87 %
02.01.2021 21:28 2,5 C 1,7 C 1,6 C 96 % 1014,6 hPa 0,0 l/m 0 min 0 min 0 W/m 0,0 km/h (0 Bft) 97,83 %
02.01.2021 21:30 2,5 C 1,7 C 1,6 C 96 % 1014,6 hPa 0,0 l/m 0 min 0 min 0 W/m 0,0 km/h (0 Bft) 98,15 %
02.01.2021 21:32 2,5 C 1,7 C 1,6 C 96 % 1014,6 hPa 0,0 l/m 0 min 0 min 0 W/m 0,0 km/h (0 Bft) 97,83 %
02.01.2021 21:34 2,5 C 1,7 C 1,6 C 96 % 1014,6 hPa 0,0 l/m 0 min 0 min 0 W/m 0,0 km/h (0 Bft) 97,87 %
02.01.2021 21:36 2,5 C 1,7 C 1,6 C 96 % 1014,6 hPa 0,0 l/m 0 min 0 min 0 W/m 0,0 km/h (0 Bft) 97,87 %
02.01.2021 21:38 2,5 C 1,7 C 1,6 C 96 % 1014,6 hPa 0,0 l/m 0 min 0 min 0 W/m 0,0 km/h (0 Bft) 97,87 %
02.01.2021 21:40 2,5 C 1,7 C 1,6 C 96 % 1014,6 hPa 0,0 l/m 0 min 0 min 0 W/m 0,0 km/h (0 Bft) 97,87 %
02.01.2021 21:42 2,5 C 1,7 C 1,6 C 96 % 1014,6 hPa 0,0 l/m 0 min 0 min 0 W/m 0,0 km/h (0 Bft) 100,00 %
02.01.2021 21:44 2,5 C 1,7 C 1,6 C 96 % 1014,7 hPa 0,0 l/m 0 min 0 min 0 W/m 0,0 km/h (0 Bft) 100,00 %
02.01.2021 21:46 2,5 C 1,7 C 1,6 C 96 % 1014,6 hPa 0,0 l/m 0 min 0 min 0 W/m 0,0 km/h (0 Bft) 100,00 %
02.01.2021 21:48 2,5 C 1,7 C 1,6 C 96 % 1014,6 hPa 0,0 l/m 0 min 0 min 0 W/m 0,0 km/h (0 Bft) 100,00 %
02.01.2021 21:50 2,5 C 1,7 C 1,6 C 96 % 1014,6 hPa 0,0 l/m 0 min 0 min 0 W/m 0,0 km/h (0 Bft) 97,87 %
02.01.2021 21:52 2,5 C 2,2 C 1,6 C 95 % 1014,6 hPa 0,0 l/m 0 min 0 min 0 W/m 0,0 km/h (0 Bft) 100,00 %
02.01.2021 21:54 2,5 C 1,7 C 1,6 C 96 % 1014,6 hPa 0,0 l/m 0 min 0 min 0 W/m 0,0 km/h (0 Bft) 100,00 %
02.01.2021 21:56 2,5 C 1,7 C 1,6 C 95 % 1014,7 hPa 0,0 l/m 0 min 0 min 0 W/m 0,0 km/h (0 Bft) 100,00 %
02.01.2021 21:58 2,5 C 1,7 C 1,6 C 95 % 1014,6 hPa 0,0 l/m 0 min 0 min 0 W/m 0,0 km/h (0 Bft) 100,00 %
02.01.2021 22:00 2,5 C 1,7 C 1,6 C 95 % 1014,7 hPa 0,0 l/m 0 min 0 min 0 W/m 0,0 km/h (0 Bft) 100,00 %
02.01.2021 22:02 2,5 C 1,7 C 1,6 C 96 % 1014,7 hPa 0,0 l/m 0 min 0 min 0 W/m 0,0 km/h (0 Bft) 100,00 %
02.01.2021 22:04 2,5 C 1,7 C 1,6 C 96 % 1014,7 hPa 0,0 l/m 0 min 0 min 0 W/m 0,0 km/h (0 Bft) 100,00 %
02.01.2021 22:06 2,5 C 1,7 C 1,6 C 96 % 1014,7 hPa 0,0 l/m 0 min 0 min 0 W/m 0,0 km/h (0 Bft) 95,65 %
02.01.2021 22:08 2,5 C 1,7 C 1,6 C 96 % 1014,6 hPa 0,0 l/m 0 min 0 min 0 W/m 0,0 km/h (0 Bft) 100,00 %
02.01.2021 22:10 2,5 C 1,7 C 1,6 C 96 % 1014,6 hPa 0,0 l/m 0 min 0 min 0 W/m 0,0 km/h (0 Bft) 100,00 %
02.01.2021 22:12 2,5 C 1,7 C 1,6 C 96 % 1014,6 hPa 0,0 l/m 0 min 0 min 0 W/m 0,0 km/h (0 Bft) 100,00 %
02.01.2021 22:14 2,5 C 1,7 C 1,6 C 96 % 1014,7 hPa 0,0 l/m 0 min 0 min 0 W/m 0,0 km/h (0 Bft) 97,87 %
02.01.2021 22:19 2,5 C 1,7 C 1,6 C 96 % 1014,7 hPa 0,0 l/m 0 min 0 min 0 W/m 0,0 km/h (0 Bft) 98,55 %
02.01.2021 22:20 2,5 C 1,7 C 1,6 C 96 % 1014,7 hPa 0,0 l/m 0 min 0 min 0 W/m 0,0 km/h (0 Bft) 100,00 %
02.01.2021 22:22 2,5 C 1,7 C 1,6 C 96 % 1014,8 hPa 0,0 l/m 0 min 0 min 0 W/m 0,0 km/h (0 Bft) 54,55 %
02.01.2021 22:24 2,5 C 1,7 C 1,6 C 96 % 1014,8 hPa 0,0 l/m 0 min 0 min 0 W/m 0,0 km/h (0 Bft) 100,00 %
02.01.2021 22:26 2,5 C 1,7 C 1,6 C 96 % 1014,8 hPa 0,0 l/m 0 min 0 min 0 W/m 0,0 km/h (0 Bft) 100,00 %
02.01.2021 22:28 2,5 C 1,7 C 1,6 C 96 % 1014,8 hPa 0,0 l/m 0 min 0 min 0 W/m 0,0 km/h (0 Bft) 100,00 %
02.01.2021 22:30 2,5 C 1,7 C 1,6 C 96 % 1014,8 hPa 0,0 l/m 0 min 0 min 0 W/m 0,0 km/h (0 Bft) 100,00 %
02.01.2021 22:32 2,5 C 1,7 C 1,6 C 96 % 1014,8 hPa 0,0 l/m 0 min 0 min 0 W/m 0,0 km/h (0 Bft) 100,00 %
02.01.2021 22:34 2,4 C 1,7 C 1,6 C 96 % 1014,9 hPa 0,0 l/m 0 min 0 min 0 W/m 0,0 km/h (0 Bft) 95,74 %
02.01.2021 22:36 2,4 C 1,7 C 1,6 C 96 % 1014,8 hPa 0,0 l/m 0 min 0 min 0 W/m 0,0 km/h (0 Bft) 100,00 %
02.01.2021 22:38 2,4 C 1,7 C 1,6 C 96 % 1014,9 hPa 0,0 l/m 0 min 0 min 0 W/m 0,0 km/h (0 Bft) 100,00 %
02.01.2021 22:40 2,4 C 1,7 C 1,6 C 96 % 1014,9 hPa 0,0 l/m 0 min 0 min 0 W/m 0,0 km/h (0 Bft) 100,00 %
02.01.2021 22:42 2,4 C 1,7 C 1,6 C 96 % 1014,9 hPa 0,0 l/m 0 min 0 min 0 W/m 0,0 km/h (0 Bft) 100,00 %
02.01.2021 22:44 2,4 C 1,7 C 1,6 C 96 % 1014,9 hPa 0,0 l/m 0 min 0 min 0 W/m 0,0 km/h (0 Bft) 100,00 %
02.01.2021 22:46 2,4 C 1,7 C 1,6 C 96 % 1014,9 hPa 0,0 l/m 0 min 0 min 0 W/m 0,0 km/h (0 Bft) 100,00 %
02.01.2021 22:48 2,4 C 1,7 C 1,6 C 96 % 1015,0 hPa 0,0 l/m 0 min 0 min 0 W/m 0,0 km/h (0 Bft) 100,00 %
02.01.2021 22:50 2,4 C 1,7 C 1,6 C 96 % 1015,0 hPa 0,0 l/m 0 min 0 min 0 W/m 0,0 km/h (0 Bft) 97,87 %
02.01.2021 22:52 2,4 C 1,7 C 1,6 C 96 % 1015,0 hPa 0,0 l/m 0 min 0 min 0 W/m 0,0 km/h (0 Bft) 97,83 %
02.01.2021 22:54 2,4 C 1,7 C 1,6 C 96 % 1015,1 hPa 0,0 l/m 0 min 0 min 0 W/m 0,0 km/h (0 Bft) 100,00 %
02.01.2021 22:56 2,4 C 1,7 C 1,6 C 96 % 1015,1 hPa 0,0 l/m 0 min 0 min 0 W/m 0,0 km/h (0 Bft) 100,00 %
02.01.2021 22:58 2,4 C 1,7 C 1,6 C 96 % 1015,1 hPa 0,0 l/m 0 min 0 min 0 W/m 0,0 km/h (0 Bft) 100,00 %
02.01.2021 23:00 2,4 C 1,7 C 1,6 C 96 % 1015,1 hPa 0,0 l/m 0 min 0 min 0 W/m 0,0 km/h (0 Bft) 95,74 %
02.01.2021 23:02 2,4 C 1,7 C 1,6 C 96 % 1015,2 hPa 0,0 l/m 0 min 0 min 0 W/m 0,0 km/h (0 Bft) 97,87 %
02.01.2021 23:04 2,4 C 1,7 C 1,6 C 96 % 1015,1 hPa 0,0 l/m 0 min 0 min 0 W/m 0,0 km/h (0 Bft) 97,83 %
02.01.2021 23:06 2,4 C 1,7 C 1,6 C 96 % 1015,1 hPa 0,0 l/m 0 min 0 min 0 W/m 0,0 km/h (0 Bft) 97,87 %
02.01.2021 23:08 2,4 C 1,7 C 1,6 C 96 % 1015,1 hPa 0,0 l/m 0 min 0 min 0 W/m 0,0 km/h (0 Bft) 95,74 %
02.01.2021 23:10 2,4 C 1,7 C 1,6 C 96 % 1015,1 hPa 0,0 l/m 0 min 0 min 0 W/m 0,0 km/h (0 Bft) 93,62 %
02.01.2021 23:12 2,4 C 1,7 C 1,6 C 96 % 1015,2 hPa 0,0 l/m 0 min 0 min 0 W/m 0,0 km/h (0 Bft) 97,87 %
02.01.2021 23:14 2,4 C 1,7 C 1,6 C 96 % 1015,2 hPa 0,0 l/m 0 min 0 min 0 W/m 0,0 km/h (0 Bft) 97,83 %
02.01.2021 23:16 2,4 C 1,7 C 1,6 C 96 % 1015,2 hPa 0,0 l/m 0 min 0 min 0 W/m 0,0 km/h (0 Bft) 97,87 %
02.01.2021 23:18 2,4 C 1,7 C 1,6 C 96 % 1015,2 hPa 0,0 l/m 0 min 0 min 0 W/m 0,0 km/h (0 Bft) 97,87 %
02.01.2021 23:20 2,5 C 1,7 C 1,6 C 96 % 1015,2 hPa 0,0 l/m 0 min 0 min 0 W/m 0,0 km/h (0 Bft) 96,08 %
02.01.2021 23:22 2,4 C 1,7 C 1,6 C 96 % 1015,2 hPa 0,0 l/m 0 min 0 min 0 W/m 0,0 km/h (0 Bft) 97,87 %
02.01.2021 23:24 2,4 C 1,7 C 1,6 C 96 % 1015,2 hPa 0,0 l/m 0 min 0 min 0 W/m 0,0 km/h (0 Bft) 95,74 %
02.01.2021 23:26 2,4 C 1,7 C 1,6 C 96 % 1015,2 hPa 0,0 l/m 0 min 0 min 0 W/m 0,0 km/h (0 Bft) 97,87 %
02.01.2021 23:28 2,4 C 1,7 C 1,6 C 96 % 1015,2 hPa 0,0 l/m 0 min 0 min 0 W/m 0,0 km/h (0 Bft) 95,74 %
02.01.2021 23:30 2,4 C 1,7 C 1,6 C 96 % 1015,3 hPa 0,0 l/m 0 min 0 min 0 W/m 0,0 km/h (0 Bft) 93,62 %
02.01.2021 23:32 2,4 C 1,7 C 1,6 C 96 % 1015,3 hPa 0,0 l/m 0 min 0 min 0 W/m 0,0 km/h (0 Bft) 94,29 %
02.01.2021 23:34 2,4 C 1,7 C 1,6 C 96 % 1015,3 hPa 0,0 l/m 0 min 0 min 0 W/m 0,0 km/h (0 Bft) 93,62 %
02.01.2021 23:36 2,4 C 1,7 C 1,6 C 96 % 1015,2 hPa 0,0 l/m 0 min 0 min 0 W/m 0,0 km/h (0 Bft) 95,65 %
02.01.2021 23:38 2,4 C 1,7 C 1,6 C 96 % 1015,2 hPa 0,0 l/m 0 min 0 min 0 W/m 0,0 km/h (0 Bft) 95,74 %
02.01.2021 23:40 2,4 C 1,7 C 1,6 C 96 % 1015,3 hPa 0,0 l/m 0 min 0 min 0 W/m 0,0 km/h (0 Bft) 95,74 %
02.01.2021 23:42 2,4 C 2,2 C 1,6 C 96 % 1015,2 hPa 0,0 l/m 0 min 0 min 0 W/m 0,0 km/h (0 Bft) 95,74 %
02.01.2021 23:44 2,4 C 2,2 C 1,6 C 96 % 1015,2 hPa 0,0 l/m 0 min 0 min 0 W/m 0,0 km/h (0 Bft) 95,74 %
02.01.2021 23:46 2,4 C 2,2 C 1,6 C 96 % 1015,3 hPa 0,0 l/m 0 min 0 min 0 W/m 0,0 km/h (0 Bft) 93,48 %
02.01.2021 23:48 2,4 C 2,2 C 1,6 C 96 % 1015,2 hPa 0,0 l/m 0 min 0 min 0 W/m 3,2 km/h (1 Bft) 95,74 %
02.01.2021 23:50 2,4 C 2,2 C 1,6 C 96 % 1015,3 hPa 0,0 l/m 0 min 0 min 0 W/m 0,0 km/h (0 Bft) 97,87 %
02.01.2021 23:52 2,5 C 2,2 C 1,6 C 96 % 1015,3 hPa 0,0 l/m 0 min 0 min 0 W/m 0,0 km/h (0 Bft) 97,87 %
02.01.2021 23:54 2,5 C 2,2 C 1,6 C 96 % 1015,2 hPa 0,0 l/m 0 min 0 min 0 W/m 0,0 km/h (0 Bft) 95,74 %
02.01.2021 23:56 2,5 C 2,2 C 1,6 C 96 % 1015,2 hPa 0,0 l/m 0 min 0 min 0 W/m 0,0 km/h (0 Bft) 97,87 %
02.01.2021 23:58 2,4 C 2,2 C 1,6 C 96 % 1015,2 hPa 0,0 l/m 0 min 0 min 0 W/m 0,0 km/h (0 Bft) 95,74 %
_ Min-Zeit 04:38 02:30 02:30 12:50 00:00 - - - - 00:00 02:54
Minimum _ 1,7 C 1,1 C 1,1 C 93 % 1012,5 hPa - - - - 0,0 km/h (0 Bft) 42,11 %
_ Max-Zeit 14:12 12:32 12:28 04:00 23:30 03:44 12:30 02:26 12:32 01:20 01:00
Maximum _ 3,2 C 3,9 C 3,3 C 96 % 1015,3 hPa 0,2 l/m 2 min 2 min 169 W/m 29,0 km/h
S-SO (5 Bft)
100,00 %
Durchschnitt _ 2,4 C 2,0 C 1,7 C 95 % 1014,1 hPa #0,2 l/m #4 min. #14 min. 42 W/m 1,2 km/h (1 Bft) 96,86 %
© 2021 W. Hausmann